Darstellungsparameter: Aktuell verwendete Einstellungen:
Skalierung der Graphiken ... ?
xyx+y,   Skalierungsfaktor:      Skalierung: Modus: x, Faktor: 1
Darstellungszeitraum ... ?
Vom - - bis: - -   Zeitraum: 15.09.2009 - 28.09.2009
Min/Max/Avg-Anzeige ... ?
Zeige MMA aktuell
Zeige MMA Monat
Zeige MMA alles
Zeige --A aktuell
Zeige --A Monat
Zeige --A alles
Keine MMA-Anzeige
MMA:
Average (ber die Originaldaten)
MMA-Basis: 15.09.2009 - 28.09.2009
Quicknavigation für Darstellung... ?
Tage:      1T, 2T, 3T, 5T -1T -2T -3T -5T +1T +2T +3T +5T
Wochen: 1W, 2W, 3W -1W -2W -3W +1W +2W +3W
Monate: 1M, 3M, 6M -1M -3M -6M +1M +3M +6M
Jahre:    1J, 3J, 5J, 10J -1J -3J -5J -10J +1J +3J +5J +10J
Nutze für die Darstellung ... ?
Originaldaten oder Mittelwerte auf ...
Stundenbasis Tagesbasis Wochenbasis
Monatsbasis Jahresbasis      Datenbasis: Original-Daten
Darstellen als:
Statistik (Auto) Statistik J:M      Darstellung:
Zur Graphik,    zurück zur Übersicht aller Sensoren.
 
Tabellarische Datenbersicht: ?
 
Sensor: Nr:Datum:Temp:Abs-Feuchte:Windchill:Wind:
Aussen-T/F 1 15-09-2009 00:11:03 11.6 C 9.87 g/m*3 11.6 C 0 km/h
2 15-09-2009 00:23:03 11.4 C 9.75 g/m*3 11.4 C 0 km/h
3 15-09-2009 00:35:03 11.4 C 9.75 g/m*3 11.4 C 0 km/h
4 15-09-2009 00:47:03 11.3 C 9.69 g/m*3 11.3 C 0 km/h
5 15-09-2009 00:59:03 11.3 C 9.69 g/m*3 11.3 C 0 km/h
6 15-09-2009 01:11:03 11.2 C 9.63 g/m*3 11.2 C 0 km/h
7 15-09-2009 01:23:04 11.1 C 9.57 g/m*3 11.1 C 0 km/h
8 15-09-2009 01:35:04 11.1 C 9.57 g/m*3 11.1 C 0 km/h
9 15-09-2009 01:47:04 11.1 C 9.57 g/m*3 11.1 C 0 km/h
10 15-09-2009 01:59:04 11.1 C 9.57 g/m*3 11.1 C 0 km/h
11 15-09-2009 02:11:04 11.1 C 9.57 g/m*3 11.1 C 0 km/h
12 15-09-2009 02:23:04 11.2 C 9.63 g/m*3 11.2 C 0 km/h
13 15-09-2009 02:35:04 11.2 C 9.63 g/m*3 11.2 C 0 km/h
14 15-09-2009 02:47:04 11.2 C 9.63 g/m*3 11.2 C 0 km/h
15 15-09-2009 02:59:04 11.1 C 9.57 g/m*3 11.1 C 0 km/h
16 15-09-2009 03:11:04 11.2 C 9.63 g/m*3 11.2 C 0 km/h
17 15-09-2009 03:23:04 11.1 C 9.57 g/m*3 11.1 C 0 km/h
18 15-09-2009 03:35:04 11.1 C 9.57 g/m*3 11.1 C 0 km/h
19 15-09-2009 03:47:04 11.1 C 9.57 g/m*3 11.1 C 0 km/h
20 15-09-2009 03:59:04 11.1 C 9.57 g/m*3 11.1 C 0 km/h
21 15-09-2009 04:11:04 11.1 C 9.57 g/m*3 11.1 C 0 km/h
22 15-09-2009 04:23:04 11.1 C 9.57 g/m*3 11.1 C 0 km/h
23 15-09-2009 04:35:04 11.2 C 9.63 g/m*3 11.2 C 0 km/h
24 15-09-2009 04:47:04 11.2 C 9.63 g/m*3 11.2 C 0 km/h
25 15-09-2009 04:59:04 11.3 C 9.69 g/m*3 11.3 C 0 km/h
Sensor: Nr:Datum:Temp:Abs-Feuchte:Windchill:Wind:
Aussen-T/F 26 15-09-2009 05:11:04 11.3 C 9.69 g/m*3 11.3 C 0 km/h
27 15-09-2009 05:23:04 11.4 C 9.75 g/m*3 11.4 C 0 km/h
28 15-09-2009 05:35:05 11.4 C 9.75 g/m*3 11.4 C 0 km/h
29 15-09-2009 05:47:05 11.4 C 9.75 g/m*3 11.4 C 0 km/h
30 15-09-2009 05:59:05 11.3 C 9.69 g/m*3 11.3 C 0 km/h
31 15-09-2009 06:11:05 11.3 C 9.69 g/m*3 11.3 C 0 km/h
32 15-09-2009 06:23:05 11.4 C 9.75 g/m*3 11.4 C 0 km/h
33 15-09-2009 06:35:05 11.4 C 9.75 g/m*3 11.4 C 0 km/h
34 15-09-2009 06:47:05 11.4 C 9.75 g/m*3 11.4 C 0 km/h
35 15-09-2009 06:59:05 11.5 C 9.81 g/m*3 11.5 C 0 km/h
36 15-09-2009 07:11:05 11.5 C 9.81 g/m*3 11.5 C 0 km/h
37 15-09-2009 07:23:05 11.5 C 9.81 g/m*3 11.5 C 0 km/h
38 15-09-2009 07:35:05 11.6 C 9.87 g/m*3 11.6 C 0 km/h
39 15-09-2009 07:47:03 11.6 C 9.87 g/m*3 11.6 C 0 km/h
40 15-09-2009 07:59:03 11.7 C 9.94 g/m*3 11.7 C 0 km/h
41 15-09-2009 08:11:02 11.9 C 10.06 g/m*3 11.9 C 0 km/h
42 15-09-2009 08:23:02 12 C 10.12 g/m*3 12 C 0 km/h
43 15-09-2009 08:35:03 11.9 C 10.06 g/m*3 11.9 C 0 km/h
44 15-09-2009 08:47:02 12.3 C 10.32 g/m*3 12.3 C 0 km/h
45 15-09-2009 08:59:03 12.6 C 10.51 g/m*3 12.6 C 0 km/h
46 15-09-2009 09:11:01 12.8 C 10.64 g/m*3 12.8 C 0 km/h
47 15-09-2009 09:23:02 13.1 C 10.84 g/m*3 13.1 C 0 km/h
48 15-09-2009 09:35:02 13.5 C 11.11 g/m*3 13.5 C 0 km/h
49 15-09-2009 09:47:01 13.3 C 10.98 g/m*3 13.3 C 0 km/h
50 15-09-2009 09:59:01 13.7 C 11.25 g/m*3 13.7 C 0 km/h
Sensor: Nr:Datum:Temp:Abs-Feuchte:Windchill:Wind:
Aussen-T/F 51 15-09-2009 10:11:02 13.8 C 11.32 g/m*3 13.8 C 0 km/h
52 15-09-2009 10:23:01 14.2 C 11.6 g/m*3 14.2 C 0 km/h
53 15-09-2009 10:35:02 14.2 C 11.36 g/m*3 14.2 C 0 km/h
54 15-09-2009 10:47:01 14.1 C 11.04 g/m*3 14.1 C 0 km/h
55 15-09-2009 10:59:01 14.4 C 11.13 g/m*3 14.4 C 0 km/h
56 15-09-2009 11:11:02 15.1 C 11.35 g/m*3 15.1 C 0 km/h
57 15-09-2009 11:23:01 15 C 10.39 g/m*3 15 C 0 km/h
58 15-09-2009 11:35:02 15.4 C 10.51 g/m*3 15.4 C 0 km/h
59 15-09-2009 11:47:01 15.8 C 10.63 g/m*3 15.8 C 0 km/h
60 15-09-2009 11:59:01 16 C 10.22 g/m*3 16 C 0 km/h
61 15-09-2009 12:11:02 16.3 C 10.41 g/m*3 16.3 C 0 km/h
62 15-09-2009 12:23:01 16.5 C 10.25 g/m*3 16.5 C 0 km/h
63 15-09-2009 12:35:02 16.6 C 10.17 g/m*3 16.6 C 0 km/h
64 15-09-2009 12:47:01 16.3 C 10.13 g/m*3 16.3 C 0 km/h
65 15-09-2009 12:59:01 16.2 C 10.2 g/m*3 16.2 C 0 km/h
66 15-09-2009 13:11:02 15.9 C 10.29 g/m*3 15.9 C 0 km/h
67 15-09-2009 13:23:02 15.9 C 10.7 g/m*3 15.9 C 0 km/h
68 15-09-2009 13:35:01 16 C 10.76 g/m*3 16 C 0 km/h
69 15-09-2009 13:47:02 16.2 C 11.03 g/m*3 16.2 C 0 km/h
70 15-09-2009 13:59:02 16.5 C 11.09 g/m*3 16.5 C 0 km/h
71 15-09-2009 14:11:01 16.5 C 10.67 g/m*3 16.5 C 0 km/h
72 15-09-2009 14:23:02 16.3 C 10.68 g/m*3 16.3 C 0 km/h
73 15-09-2009 14:35:01 16.1 C 10.69 g/m*3 16.1 C 0 km/h
74 15-09-2009 14:47:02 15.8 C 10.9 g/m*3 15.8 C 0 km/h
75 15-09-2009 14:59:02 15.5 C 10.84 g/m*3 15.5 C 0 km/h
Sensor: Nr:Datum:Temp:Abs-Feuchte:Windchill:Wind:
Aussen-T/F 76 15-09-2009 15:11:02 15.2 C 11.03 g/m*3 15.2 C 0 km/h
77 15-09-2009 15:23:02 15.3 C 11.23 g/m*3 15.3 C 0 km/h
78 15-09-2009 15:35:03 15.4 C 11.3 g/m*3 15.4 C 0 km/h
79 15-09-2009 15:47:02 15.3 C 11.36 g/m*3 15.3 C 0 km/h
80 15-09-2009 15:59:02 15.2 C 11.29 g/m*3 15.2 C 0 km/h
81 15-09-2009 16:11:02 15.1 C 11.35 g/m*3 15.1 C 0 km/h
82 15-09-2009 16:23:01 15 C 11.41 g/m*3 15 C 0 km/h
83 15-09-2009 16:35:02 15 C 11.41 g/m*3 15 C 0 km/h
84 15-09-2009 16:47:02 15 C 11.54 g/m*3 15 C 0 km/h
85 15-09-2009 16:59:02 15 C 11.54 g/m*3 15 C 0 km/h
86 15-09-2009 17:11:02 15 C 11.54 g/m*3 15 C 0 km/h
87 15-09-2009 17:23:02 15 C 11.54 g/m*3 15 C 0 km/h
88 15-09-2009 17:35:02 15.2 C 11.81 g/m*3 15.2 C 0 km/h
89 15-09-2009 17:47:02 15.4 C 11.96 g/m*3 15.4 C 0 km/h
90 15-09-2009 17:59:02 15.7 C 12.18 g/m*3 15.7 C 0 km/h
91 15-09-2009 18:11:02 15.7 C 12.18 g/m*3 15.7 C 0 km/h
92 15-09-2009 18:23:02 15.8 C 12.25 g/m*3 15.8 C 0 km/h
93 15-09-2009 18:35:02 15.9 C 12.32 g/m*3 15.9 C 0 km/h
94 15-09-2009 18:47:02 15.9 C 12.32 g/m*3 15.9 C 0 km/h
95 15-09-2009 18:59:02 15.8 C 12.25 g/m*3 15.8 C 0 km/h
96 15-09-2009 19:11:02 15.7 C 12.18 g/m*3 15.7 C 0 km/h
97 15-09-2009 19:23:03 15.6 C 12.1 g/m*3 15.6 C 0 km/h
98 15-09-2009 19:35:02 15.4 C 11.96 g/m*3 15.4 C 0 km/h
99 15-09-2009 19:47:02 15.3 C 11.88 g/m*3 15.3 C 0 km/h
100 15-09-2009 19:59:02 15.2 C 11.81 g/m*3 15.2 C 0 km/h
Sensor: Nr:Datum:Temp:Abs-Feuchte:Windchill:Wind:
Aussen-T/F 101 15-09-2009 20:11:02 15.2 C 11.81 g/m*3 15.2 C 0 km/h
102 15-09-2009 20:23:02 15.2 C 11.94 g/m*3 15.2 C 0 km/h
103 15-09-2009 20:35:02 15.2 C 11.94 g/m*3 15.2 C 0 km/h
104 15-09-2009 20:47:02 15.1 C 11.87 g/m*3 15.1 C 0 km/h
105 15-09-2009 20:59:02 15.1 C 11.87 g/m*3 15.1 C 0 km/h
106 15-09-2009 21:11:01 15.1 C 11.87 g/m*3 15.1 C 0 km/h
107 15-09-2009 21:23:02 15.1 C 11.87 g/m*3 15.1 C 0 km/h
108 15-09-2009 21:35:02 15 C 11.8 g/m*3 15 C 0 km/h
109 15-09-2009 21:47:02 15 C 11.8 g/m*3 15 C 0 km/h
110 15-09-2009 21:59:03 15 C 11.8 g/m*3 15 C 0 km/h
111 15-09-2009 22:11:01 14.9 C 11.85 g/m*3 14.9 C 0 km/h
112 15-09-2009 22:23:01 14.8 C 11.78 g/m*3 14.8 C 0 km/h
113 15-09-2009 22:35:02 14.8 C 11.78 g/m*3 14.8 C 0 km/h
114 15-09-2009 22:47:02 14.8 C 11.78 g/m*3 14.8 C 0 km/h
115 15-09-2009 22:59:02 14.7 C 11.71 g/m*3 14.7 C 0 km/h
116 15-09-2009 23:11:01 14.7 C 11.71 g/m*3 14.7 C 0 km/h
117 15-09-2009 23:23:02 14.7 C 11.71 g/m*3 14.7 C 0 km/h
118 15-09-2009 23:36:02 14.6 C 11.64 g/m*3 14.6 C 0 km/h
119 15-09-2009 23:48:02 14.6 C 11.64 g/m*3 14.6 C 0 km/h
120 16-09-2009 00:00:02 14.6 C 11.64 g/m*3 14.6 C 0 km/h
121 16-09-2009 00:12:02 14.6 C 11.64 g/m*3 14.6 C 0 km/h
122 16-09-2009 00:24:02 14.6 C 11.64 g/m*3 14.6 C 0 km/h
123 16-09-2009 00:36:02 14.6 C 11.64 g/m*3 14.6 C 0 km/h
124 16-09-2009 00:48:02 14.6 C 11.64 g/m*3 14.6 C 0 km/h
125 16-09-2009 01:00:02 14.6 C 11.64 g/m*3 14.6 C 0 km/h
Sensor: Nr:Datum:Temp:Abs-Feuchte:Windchill:Wind:
Aussen-T/F 126 16-09-2009 01:12:02 14.6 C 11.64 g/m*3 14.6 C 0 km/h
127 16-09-2009 01:24:02 14.6 C 11.64 g/m*3 14.6 C 0 km/h
128 16-09-2009 01:36:02 14.6 C 11.64 g/m*3 14.6 C 0 km/h
129 16-09-2009 01:48:02 14.6 C 11.51 g/m*3 14.6 C 0 km/h
130 16-09-2009 02:00:02 14.4 C 11.37 g/m*3 14.4 C 0 km/h
131 16-09-2009 02:12:02 14.4 C 11.37 g/m*3 14.4 C 0 km/h
132 16-09-2009 02:24:02 14.2 C 11.23 g/m*3 14.2 C 0 km/h
133 16-09-2009 02:36:02 14.6 C 11.51 g/m*3 14.6 C 0 km/h
134 16-09-2009 02:48:02 14.4 C 11.37 g/m*3 14.4 C 0 km/h
135 16-09-2009 03:00:02 14.4 C 11.37 g/m*3 14.4 C 0 km/h
136 16-09-2009 03:12:02 14.4 C 11.37 g/m*3 14.4 C 0 km/h
137 16-09-2009 03:24:02 14.4 C 11.37 g/m*3 14.4 C 0 km/h
138 16-09-2009 03:36:03 14.4 C 11.37 g/m*3 14.4 C 0 km/h
139 16-09-2009 03:48:03 14.4 C 11.37 g/m*3 14.4 C 0 km/h
140 16-09-2009 04:00:03 14.3 C 11.3 g/m*3 14.3 C 0 km/h
141 16-09-2009 04:12:03 14.3 C 11.3 g/m*3 14.3 C 0 km/h
142 16-09-2009 04:24:03 14.1 C 11.04 g/m*3 14.1 C 0 km/h
143 16-09-2009 04:36:03 14.4 C 11.25 g/m*3 14.4 C 0 km/h
144 16-09-2009 04:48:03 14.4 C 11.13 g/m*3 14.4 C 0 km/h
145 16-09-2009 05:00:03 14.3 C 11.06 g/m*3 14.3 C 0 km/h
146 16-09-2009 05:12:03 14.3 C 11.06 g/m*3 14.3 C 0 km/h
147 16-09-2009 05:24:03 14.3 C 11.06 g/m*3 14.3 C 0 km/h
148 16-09-2009 05:36:03 14.3 C 11.06 g/m*3 14.3 C 0 km/h
149 16-09-2009 05:48:03 14.2 C 10.99 g/m*3 14.2 C 0 km/h
150 16-09-2009 06:00:03 14.3 C 11.06 g/m*3 14.3 C 0 km/h
Sensor: Nr:Datum:Temp:Abs-Feuchte:Windchill:Wind:
Aussen-T/F 151 16-09-2009 06:12:03 14.3 C 11.06 g/m*3 14.3 C 0 km/h
152 16-09-2009 06:24:03 14.3 C 10.93 g/m*3 14.3 C 0 km/h
153 16-09-2009 06:36:03 14.3 C 10.93 g/m*3 14.3 C 0 km/h
154 16-09-2009 06:48:03 14.3 C 10.93 g/m*3 14.3 C 0 km/h
155 16-09-2009 07:00:03 14.3 C 10.93 g/m*3 14.3 C 0 km/h
156 16-09-2009 07:12:03 14.4 C 11 g/m*3 14.4 C 0 km/h
157 16-09-2009 07:24:03 14.4 C 11 g/m*3 14.4 C 0 km/h
158 16-09-2009 07:36:03 14.5 C 11.07 g/m*3 14.5 C 0 km/h
159 16-09-2009 07:48:04 14.5 C 11.07 g/m*3 14.5 C 0 km/h
160 16-09-2009 08:00:04 14.5 C 10.94 g/m*3 14.5 C 0 km/h
161 16-09-2009 08:12:04 14.5 C 10.94 g/m*3 14.5 C 0 km/h
162 16-09-2009 08:24:04 14.6 C 11.01 g/m*3 14.6 C 0 km/h
163 16-09-2009 08:36:04 14.8 C 11.15 g/m*3 14.8 C 0 km/h
164 16-09-2009 08:48:04 14.8 C 11.15 g/m*3 14.8 C 0 km/h
165 16-09-2009 09:00:04 14.8 C 11.15 g/m*3 14.8 C 0 km/h
166 16-09-2009 09:12:02 15 C 11.16 g/m*3 15 C 0 km/h
167 16-09-2009 09:24:02 15.1 C 11.22 g/m*3 15.1 C 0 km/h
168 16-09-2009 09:36:02 15.2 C 11.29 g/m*3 15.2 C 0 km/h
169 16-09-2009 09:48:01 15.4 C 11.3 g/m*3 15.4 C 0 km/h
170 16-09-2009 10:00:01 15.6 C 11.44 g/m*3 15.6 C 0 km/h
171 16-09-2009 10:12:02 15.7 C 11.37 g/m*3 15.7 C 0 km/h
172 16-09-2009 10:24:01 15.9 C 11.51 g/m*3 15.9 C 0 km/h
173 16-09-2009 10:36:02 16 C 11.44 g/m*3 16 C 0 km/h
174 16-09-2009 10:48:01 16.2 C 11.58 g/m*3 16.2 C 0 km/h
175 16-09-2009 11:00:01 16.4 C 11.72 g/m*3 16.4 C 0 km/h
Sensor: Nr:Datum:Temp:Abs-Feuchte:Windchill:Wind:
Aussen-T/F 176 16-09-2009 11:12:02 16.5 C 11.65 g/m*3 16.5 C 0 km/h
177 16-09-2009 11:24:02 16.8 C 11.87 g/m*3 16.8 C 0 km/h
178 16-09-2009 11:36:02 17 C 11.87 g/m*3 17 C 0 km/h
179 16-09-2009 11:48:02 17.1 C 11.94 g/m*3 17.1 C 0 km/h
180 16-09-2009 12:00:02 17.3 C 11.93 g/m*3 17.3 C 0 km/h
181 16-09-2009 12:12:01 17.5 C 11.78 g/m*3 17.5 C 0 km/h
182 16-09-2009 12:24:02 17.7 C 11.92 g/m*3 17.7 C 0 km/h
183 16-09-2009 12:36:01 18.1 C 11.9 g/m*3 18.1 C 0 km/h
184 16-09-2009 12:48:02 18.3 C 11.88 g/m*3 18.3 C 0 km/h
185 16-09-2009 13:00:02 18.7 C 12.01 g/m*3 18.7 C 0 km/h
186 16-09-2009 13:12:01 19.1 C 11.8 g/m*3 19.1 C 0 km/h
187 16-09-2009 13:24:01 19.5 C 11.24 g/m*3 19.5 C 0 km/h
188 16-09-2009 13:36:02 20 C 10.89 g/m*3 20 C 0 km/h
189 16-09-2009 13:48:02 19.9 C 10.82 g/m*3 19.9 C 0 km/h
190 16-09-2009 14:00:02 19.6 C 10.8 g/m*3 19.6 C 0 km/h
191 16-09-2009 14:12:01 19.6 C 10.8 g/m*3 19.6 C 0 km/h
192 16-09-2009 14:24:02 20 C 10.71 g/m*3 20 C 0 km/h
193 16-09-2009 14:36:02 20.4 C 10.44 g/m*3 20.4 C 0 km/h
194 16-09-2009 14:48:02 20.4 C 10.44 g/m*3 20.4 C 0 km/h
195 16-09-2009 15:00:02 20 C 10.54 g/m*3 20 C 0 km/h
196 16-09-2009 15:12:03 20.2 C 10.84 g/m*3 20.2 C 0 km/h
197 16-09-2009 15:24:02 20.3 C 10.73 g/m*3 20.3 C 0 km/h
198 16-09-2009 15:36:02 20.1 C 10.78 g/m*3 20.1 C 0 km/h
199 16-09-2009 15:48:01 20 C 10.89 g/m*3 20 C 0 km/h
200 16-09-2009 16:00:01 19.8 C 11.44 g/m*3 19.8 C 0 km/h
Sensor: Nr:Datum:Temp:Abs-Feuchte:Windchill:Wind:
Aussen-T/F 201 16-09-2009 16:12:02 19.6 C 11.48 g/m*3 19.6 C 0 km/h
202 16-09-2009 16:24:01 19.7 C 11.38 g/m*3 19.7 C 0 km/h
203 16-09-2009 16:36:01 19.7 C 11.38 g/m*3 19.7 C 0 km/h
204 16-09-2009 16:48:01 19.7 C 11.38 g/m*3 19.7 C 0 km/h
205 16-09-2009 17:00:01 19.6 C 11.48 g/m*3 19.6 C 0 km/h
206 16-09-2009 17:12:01 19.7 C 11.38 g/m*3 19.7 C 0 km/h
207 16-09-2009 17:24:02 19.7 C 11.21 g/m*3 19.7 C 0 km/h
208 16-09-2009 17:36:01 19.6 C 11.31 g/m*3 19.6 C 0 km/h
209 16-09-2009 17:48:02 19.5 C 11.08 g/m*3 19.5 C 0 km/h
210 16-09-2009 18:00:02 19.4 C 11.35 g/m*3 19.4 C 0 km/h
211 16-09-2009 18:12:02 19.5 C 11.41 g/m*3 19.5 C 0 km/h
212 16-09-2009 18:24:02 19.4 C 11.35 g/m*3 19.4 C 0 km/h
213 16-09-2009 18:36:03 19.3 C 11.28 g/m*3 19.3 C 0 km/h
214 16-09-2009 18:48:03 19.1 C 11.47 g/m*3 19.1 C 0 km/h
215 16-09-2009 19:00:03 18.8 C 11.6 g/m*3 18.8 C 0 km/h
216 16-09-2009 19:12:02 18.7 C 11.69 g/m*3 18.7 C 0 km/h
217 16-09-2009 19:24:02 18.3 C 11.57 g/m*3 18.3 C 0 km/h
218 16-09-2009 19:36:02 18.1 C 11.59 g/m*3 18.1 C 0 km/h
219 16-09-2009 19:48:02 18.1 C 11.59 g/m*3 18.1 C 0 km/h
220 16-09-2009 20:00:02 17.9 C 11.91 g/m*3 17.9 C 0 km/h
221 16-09-2009 20:12:02 18 C 11.83 g/m*3 18 C 0 km/h
222 16-09-2009 20:24:02 17.8 C 11.84 g/m*3 17.8 C 0 km/h
223 16-09-2009 20:36:01 17.3 C 11.79 g/m*3 17.3 C 0 km/h
224 16-09-2009 20:48:02 17 C 11.72 g/m*3 17 C 0 km/h
225 16-09-2009 21:00:02 16.9 C 11.94 g/m*3 16.9 C 0 km/h
Sensor: Nr:Datum:Temp:Abs-Feuchte:Windchill:Wind:
Aussen-T/F 226 16-09-2009 21:12:02 17.2 C 12.15 g/m*3 17.2 C 0 km/h
227 16-09-2009 21:24:01 17.3 C 12.08 g/m*3 17.3 C 0 km/h
228 16-09-2009 21:36:01 17.4 C 12.15 g/m*3 17.4 C 0 km/h
229 16-09-2009 21:48:01 17.4 C 12.15 g/m*3 17.4 C 0 km/h
230 16-09-2009 22:00:01 17.4 C 12 g/m*3 17.4 C 0 km/h
231 16-09-2009 22:12:01 17.3 C 11.79 g/m*3 17.3 C 0 km/h
232 16-09-2009 22:24:01 17.3 C 11.79 g/m*3 17.3 C 0 km/h
233 16-09-2009 22:36:02 17.3 C 11.79 g/m*3 17.3 C 0 km/h
234 16-09-2009 22:48:02 17.3 C 11.64 g/m*3 17.3 C 0 km/h
235 16-09-2009 23:00:02 17.3 C 11.49 g/m*3 17.3 C 0 km/h
236 16-09-2009 23:12:03 17.2 C 11.42 g/m*3 17.2 C 0 km/h
237 16-09-2009 23:24:02 17.1 C 11.5 g/m*3 17.1 C 0 km/h
238 16-09-2009 23:36:02 17.2 C 11.57 g/m*3 17.2 C 0 km/h
239 16-09-2009 23:48:01 17 C 11.43 g/m*3 17 C 0 km/h
240 17-09-2009 00:00:01 16.7 C 11.37 g/m*3 16.7 C 0 km/h
241 17-09-2009 00:12:02 16.7 C 11.51 g/m*3 16.7 C 0 km/h
242 17-09-2009 00:24:01 16.6 C 11.44 g/m*3 16.6 C 0 km/h
243 17-09-2009 00:36:02 16.6 C 11.44 g/m*3 16.6 C 0 km/h
244 17-09-2009 00:48:01 16.6 C 11.44 g/m*3 16.6 C 0 km/h
245 17-09-2009 01:00:01 16.6 C 11.44 g/m*3 16.6 C 0 km/h
246 17-09-2009 01:12:02 16.6 C 11.44 g/m*3 16.6 C 0 km/h
247 17-09-2009 01:24:01 16.7 C 11.37 g/m*3 16.7 C 0 km/h
248 17-09-2009 01:36:02 16.7 C 11.23 g/m*3 16.7 C 0 km/h
249 17-09-2009 01:48:01 16.5 C 11.23 g/m*3 16.5 C 0 km/h
250 17-09-2009 02:00:01 16.5 C 11.23 g/m*3 16.5 C 0 km/h
Sensor: Nr:Datum:Temp:Abs-Feuchte:Windchill:Wind:
Aussen-T/F 251 17-09-2009 02:12:02 16.6 C 11.16 g/m*3 16.6 C 0 km/h
252 17-09-2009 02:24:02 16.6 C 11.16 g/m*3 16.6 C 0 km/h
253 17-09-2009 02:36:02 16.6 C 11.02 g/m*3 16.6 C 0 km/h
254 17-09-2009 02:48:02 16.6 C 11.02 g/m*3 16.6 C 0 km/h
255 17-09-2009 03:00:02 16.6 C 11.02 g/m*3 16.6 C 0 km/h
256 17-09-2009 03:12:01 16.5 C 11.09 g/m*3 16.5 C 0 km/h
257 17-09-2009 03:24:01 16.5 C 11.09 g/m*3 16.5 C 0 km/h
258 17-09-2009 03:36:01 16.5 C 10.95 g/m*3 16.5 C 0 km/h
259 17-09-2009 03:48:01 16.5 C 10.95 g/m*3 16.5 C 0 km/h
260 17-09-2009 04:00:01 16.4 C 10.89 g/m*3 16.4 C 0 km/h
261 17-09-2009 04:12:01 16.4 C 10.89 g/m*3 16.4 C 0 km/h
262 17-09-2009 04:24:01 16.4 C 10.89 g/m*3 16.4 C 0 km/h
263 17-09-2009 04:36:01 16.3 C 10.68 g/m*3 16.3 C 0 km/h
264 17-09-2009 04:48:01 16.3 C 10.41 g/m*3 16.3 C 0 km/h
265 17-09-2009 05:00:01 16.2 C 10.34 g/m*3 16.2 C 0 km/h
266 17-09-2009 05:12:01 16 C 10.08 g/m*3 16 C 0 km/h
267 17-09-2009 05:24:02 16 C 10.08 g/m*3 16 C 0 km/h
268 17-09-2009 05:36:01 15.9 C 10.16 g/m*3 15.9 C 0 km/h
269 17-09-2009 05:48:02 15.8 C 10.1 g/m*3 15.8 C 0 km/h
270 17-09-2009 06:00:02 15.8 C 10.1 g/m*3 15.8 C 0 km/h
271 17-09-2009 06:12:01 15.6 C 9.97 g/m*3 15.6 C 0 km/h
272 17-09-2009 06:24:02 15.4 C 9.85 g/m*3 15.4 C 0 km/h
273 17-09-2009 06:36:01 15.4 C 9.85 g/m*3 15.4 C 0 km/h
274 17-09-2009 06:48:02 15.4 C 9.72 g/m*3 15.4 C 0 km/h
275 17-09-2009 07:00:02 15.3 C 9.79 g/m*3 15.3 C 0 km/h
Sensor: Nr:Datum:Temp:Abs-Feuchte:Windchill:Wind:
Aussen-T/F 276 17-09-2009 07:12:01 15.3 C 9.79 g/m*3 15.3 C 0 km/h
277 17-09-2009 07:24:01 15.3 C 9.66 g/m*3 15.3 C 0 km/h
278 17-09-2009 07:36:02 15.2 C 9.61 g/m*3 15.2 C 0 km/h
279 17-09-2009 07:48:01 15.2 C 9.48 g/m*3 15.2 C 0 km/h
280 17-09-2009 08:00:01 15.2 C 9.35 g/m*3 15.2 C 0 km/h
281 17-09-2009 08:12:01 15.1 C 9.42 g/m*3 15.1 C 0 km/h
282 17-09-2009 08:24:01 15.2 C 9.48 g/m*3 15.2 C 0 km/h
283 17-09-2009 08:36:02 15.3 C 9.27 g/m*3 15.3 C 0 km/h
284 17-09-2009 08:48:01 15.2 C 9.09 g/m*3 15.2 C 0 km/h
285 17-09-2009 09:00:01 15.4 C 9.07 g/m*3 15.4 C 0 km/h
286 17-09-2009 09:12:02 15.5 C 8.99 g/m*3 15.5 C 0 km/h
287 17-09-2009 09:24:01 15.7 C 9.1 g/m*3 15.7 C 0 km/h
288 17-09-2009 09:36:01 15.9 C 9.07 g/m*3 15.9 C 0 km/h
289 17-09-2009 09:48:01 16.1 C 8.77 g/m*3 16.1 C 0 km/h
290 17-09-2009 10:00:01 16.2 C 8.69 g/m*3 16.2 C 0 km/h
291 17-09-2009 10:12:02 16.4 C 8.79 g/m*3 16.4 C 0 km/h
292 17-09-2009 10:24:01 16.6 C 8.76 g/m*3 16.6 C 0 km/h
293 17-09-2009 10:36:01 17 C 8.54 g/m*3 17 C 0 km/h
294 17-09-2009 10:48:01 17.3 C 8.84 g/m*3 17.3 C 0 km/h
295 17-09-2009 11:00:01 17 C 8.68 g/m*3 17 C 0 km/h
296 17-09-2009 11:12:01 17.3 C 8.69 g/m*3 17.3 C 0 km/h
297 17-09-2009 11:24:01 17.4 C 8.6 g/m*3 17.4 C 0 km/h
298 17-09-2009 11:36:01 17.7 C 8.75 g/m*3 17.7 C 0 km/h
299 17-09-2009 11:48:01 18.1 C 8.65 g/m*3 18.1 C 0 km/h
300 17-09-2009 12:00:01 18.2 C 8.7 g/m*3 18.2 C 0 km/h
Sensor: Nr:Datum:Temp:Abs-Feuchte:Windchill:Wind:
Aussen-T/F 301 17-09-2009 12:12:01 18.7 C 8.81 g/m*3 18.7 C 0 km/h
302 17-09-2009 12:24:02 18.8 C 9.02 g/m*3 18.8 C 0 km/h
303 17-09-2009 12:36:01 19.3 C 8.96 g/m*3 19.3 C 0 km/h
304 17-09-2009 12:48:02 20.4 C 8.67 g/m*3 20.4 C 0 km/h
305 17-09-2009 13:00:02 20.9 C 9.11 g/m*3 20.9 C 0 km/h
306 17-09-2009 13:12:01 20.8 C 8.87 g/m*3 20.8 C 0 km/h
307 17-09-2009 13:24:02 21 C 8.43 g/m*3 21 C 0 km/h
308 17-09-2009 13:36:01 21.6 C 8.53 g/m*3 21.6 C 0 km/h
309 17-09-2009 13:48:02 22 C 8.73 g/m*3 22 C 0 km/h
310 17-09-2009 14:00:02 22.9 C 8.38 g/m*3 22.9 C 0 km/h
311 17-09-2009 14:12:01 23.8 C 7.96 g/m*3 23.8 C 0 km/h
312 17-09-2009 14:24:01 23.3 C 8.36 g/m*3 23.3 C 0 km/h
313 17-09-2009 14:36:02 23.1 C 8.68 g/m*3 23.1 C 0 km/h
314 17-09-2009 14:48:01 23.2 C 8.52 g/m*3 23.2 C 0 km/h
315 17-09-2009 15:00:01 23 C 9.25 g/m*3 23 C 0 km/h
316 17-09-2009 15:12:01 22.7 C 9.09 g/m*3 22.7 C 0 km/h
317 17-09-2009 15:24:01 23.2 C 8.94 g/m*3 23.2 C 0 km/h
318 17-09-2009 15:36:02 23.7 C 9.2 g/m*3 23.7 C 0 km/h
319 17-09-2009 15:48:01 23.2 C 8.94 g/m*3 23.2 C 0 km/h
320 17-09-2009 16:00:01 24.2 C 9.24 g/m*3 24.2 C 0 km/h
321 17-09-2009 16:12:02 25.1 C 8.33 g/m*3 25.1 C 0 km/h
322 17-09-2009 16:24:01 25.6 C 9.05 g/m*3 25.6 C 0 km/h
323 17-09-2009 16:36:01 26.3 C 8.66 g/m*3 26.3 C 0 km/h
324 17-09-2009 16:48:01 26.7 C 8.35 g/m*3 26.7 C 0 km/h
325 17-09-2009 17:00:01 26.4 C 7.97 g/m*3 26.4 C 0 km/h
Sensor: Nr:Datum:Temp:Abs-Feuchte:Windchill:Wind:
Aussen-T/F 326 17-09-2009 17:12:02 26.1 C 8.81 g/m*3 26.1 C 0 km/h
327 17-09-2009 17:24:01 24.5 C 9.4 g/m*3 24.5 C 0 km/h
328 17-09-2009 17:36:01 24.2 C 9.46 g/m*3 24.2 C 0 km/h
329 17-09-2009 17:48:01 24.5 C 9.4 g/m*3 24.5 C 0 km/h
330 17-09-2009 18:00:01 24.8 C 9.56 g/m*3 24.8 C 0 km/h
331 17-09-2009 18:12:01 24.4 C 9.35 g/m*3 24.4 C 0 km/h
332 17-09-2009 18:24:02 23.1 C 9.72 g/m*3 23.1 C 0 km/h
333 17-09-2009 18:36:01 22.1 C 9.76 g/m*3 22.1 C 0 km/h
334 17-09-2009 18:48:01 21.3 C 10.07 g/m*3 21.3 C 0 km/h
335 17-09-2009 19:00:01 20.5 C 10.14 g/m*3 20.5 C 0 km/h
336 17-09-2009 19:12:01 19.8 C 10.08 g/m*3 19.8 C 0 km/h
337 17-09-2009 19:24:02 19.4 C 10.01 g/m*3 19.4 C 0 km/h
338 17-09-2009 19:36:01 18.9 C 10.04 g/m*3 18.9 C 0 km/h
339 17-09-2009 19:48:02 18.6 C 10.03 g/m*3 18.6 C 0 km/h
340 17-09-2009 20:00:02 18.2 C 9.95 g/m*3 18.2 C 0 km/h
341 17-09-2009 20:12:01 17.9 C 10.08 g/m*3 17.9 C 0 km/h
342 17-09-2009 20:24:02 17.6 C 10.05 g/m*3 17.6 C 0 km/h
343 17-09-2009 20:36:01 17.3 C 10.02 g/m*3 17.3 C 0 km/h
344 17-09-2009 20:48:02 17.1 C 9.9 g/m*3 17.1 C 0 km/h
345 17-09-2009 21:00:02 16.8 C 9.87 g/m*3 16.8 C 0 km/h
346 17-09-2009 21:12:01 16.9 C 10.21 g/m*3 16.9 C 0 km/h
347 17-09-2009 21:24:02 17 C 9.98 g/m*3 17 C 0 km/h
348 17-09-2009 21:36:01 16.9 C 10.21 g/m*3 16.9 C 0 km/h
349 17-09-2009 21:48:02 17 C 10.27 g/m*3 17 C 0 km/h
350 17-09-2009 22:00:02 17.3 C 10.31 g/m*3 17.3 C 0 km/h
Sensor: Nr:Datum:Temp:Abs-Feuchte:Windchill:Wind:
Aussen-T/F 351 17-09-2009 22:12:01 17.2 C 10.25 g/m*3 17.2 C 0 km/h
352 17-09-2009 22:24:01 17.2 C 9.96 g/m*3 17.2 C 0 km/h
353 17-09-2009 22:37:02 17.1 C 9.75 g/m*3 17.1 C 0 km/h
354 17-09-2009 22:49:03 17.2 C 9.81 g/m*3 17.2 C 0 km/h
355 17-09-2009 23:01:03 17 C 9.12 g/m*3 17 C 0 km/h
356 17-09-2009 23:13:03 17 C 8.83 g/m*3 17 C 0 km/h
357 17-09-2009 23:25:03 17.1 C 9.32 g/m*3 17.1 C 0 km/h
358 17-09-2009 23:37:03 17 C 8.97 g/m*3 17 C 0 km/h
359 17-09-2009 23:49:03 17 C 9.12 g/m*3 17 C 0 km/h
360 18-09-2009 00:01:03 16.8 C 9.15 g/m*3 16.8 C 0 km/h
361 18-09-2009 00:13:03 16.5 C 9.13 g/m*3 16.5 C 0 km/h
362 18-09-2009 00:25:03 16.3 C 9.02 g/m*3 16.3 C 0 km/h
363 18-09-2009 00:37:03 16.2 C 8.96 g/m*3 16.2 C 0 km/h
364 18-09-2009 00:49:03 16.1 C 8.91 g/m*3 16.1 C 0 km/h
365 18-09-2009 01:01:03 16 C 8.99 g/m*3 16 C 0 km/h
366 18-09-2009 01:13:03 16 C 8.86 g/m*3 16 C 0 km/h
367 18-09-2009 01:25:03 16.2 C 8.96 g/m*3 16.2 C 0 km/h
368 18-09-2009 01:37:03 16.2 C 8.83 g/m*3 16.2 C 0 km/h
369 18-09-2009 01:49:03 16.2 C 8.96 g/m*3 16.2 C 0 km/h
370 18-09-2009 02:01:03 15.9 C 8.94 g/m*3 15.9 C 0 km/h
371 18-09-2009 02:13:03 15.4 C 8.8 g/m*3 15.4 C 0 km/h
372 18-09-2009 02:25:03 15 C 8.72 g/m*3 15 C 0 km/h
373 18-09-2009 02:37:03 14.5 C 8.71 g/m*3 14.5 C 0 km/h
374 18-09-2009 02:49:04 14.3 C 8.85 g/m*3 14.3 C 0 km/h
375 18-09-2009 03:01:04 14 C 8.68 g/m*3 14 C 0 km/h
Sensor: Nr:Datum:Temp:Abs-Feuchte:Windchill:Wind:
Aussen-T/F 376 18-09-2009 03:13:04 13.7 C 8.76 g/m*3 13.7 C 0 km/h
377 18-09-2009 03:25:04 13.6 C 8.83 g/m*3 13.6 C 0 km/h
378 18-09-2009 03:37:04 13.6 C 8.94 g/m*3 13.6 C 0 km/h
379 18-09-2009 03:49:04 13.4 C 8.83 g/m*3 13.4 C 0 km/h
380 18-09-2009 04:01:04 13.2 C 8.73 g/m*3 13.2 C 0 km/h
381 18-09-2009 04:13:04 13 C 8.73 g/m*3 13 C 0 km/h
382 18-09-2009 04:25:04 13 C 8.85 g/m*3 13 C 0 km/h
383 18-09-2009 04:37:04 13.1 C 8.9 g/m*3 13.1 C 0 km/h
384 18-09-2009 04:49:04 13.3 C 9.13 g/m*3 13.3 C 0 km/h
385 18-09-2009 05:01:04 13.5 C 9.24 g/m*3 13.5 C 0 km/h
386 18-09-2009 05:13:04 13.5 C 9.24 g/m*3 13.5 C 0 km/h
387 18-09-2009 05:25:04 13.3 C 9.13 g/m*3 13.3 C 0 km/h
388 18-09-2009 05:37:04 13 C 9.07 g/m*3 13 C 0 km/h
389 18-09-2009 05:49:04 12.7 C 9.02 g/m*3 12.7 C 0 km/h
390 18-09-2009 06:01:04 12.5 C 9.02 g/m*3 12.5 C 0 km/h
391 18-09-2009 06:13:04 12.5 C 9.02 g/m*3 12.5 C 0 km/h
392 18-09-2009 06:25:05 12.6 C 9.18 g/m*3 12.6 C 0 km/h
393 18-09-2009 06:37:05 12.7 C 9.24 g/m*3 12.7 C 0 km/h
394 18-09-2009 06:49:05 12.8 C 9.18 g/m*3 12.8 C 0 km/h
395 18-09-2009 07:01:02 12.7 C 9.13 g/m*3 12.7 C 0 km/h
396 18-09-2009 07:13:02 12.8 C 9.3 g/m*3 12.8 C 0 km/h
397 18-09-2009 07:25:02 12.9 C 9.35 g/m*3 12.9 C 0 km/h
398 18-09-2009 07:37:02 13 C 9.41 g/m*3 13 C 0 km/h
399 18-09-2009 07:49:02 13.3 C 9.47 g/m*3 13.3 C 0 km/h
400 18-09-2009 08:01:02 13.4 C 9.53 g/m*3 13.4 C 0 km/h
Sensor: Nr:Datum:Temp:Abs-Feuchte:Windchill:Wind:
Aussen-T/F 401 18-09-2009 08:13:02 13.3 C 9.36 g/m*3 13.3 C 0 km/h
402 18-09-2009 08:25:02 13.4 C 9.42 g/m*3 13.4 C 0 km/h
403 18-09-2009 08:37:02 13.5 C 9.47 g/m*3 13.5 C 0 km/h
404 18-09-2009 08:49:02 13.7 C 9.47 g/m*3 13.7 C 0 km/h
405 18-09-2009 09:01:02 13.6 C 9.3 g/m*3 13.6 C 0 km/h
406 18-09-2009 09:13:02 13.8 C 9.53 g/m*3 13.8 C 0 km/h
407 18-09-2009 09:25:03 14 C 9.53 g/m*3 14 C 0 km/h
408 18-09-2009 09:37:02 14 C 9.29 g/m*3 14 C 0 km/h
409 18-09-2009 09:49:03 14 C 9.29 g/m*3 14 C 0 km/h
410 18-09-2009 10:01:02 14.4 C 9.39 g/m*3 14.4 C 0 km/h
411 18-09-2009 10:13:02 14.7 C 9.32 g/m*3 14.7 C 0 km/h
412 18-09-2009 10:25:02 15 C 9.23 g/m*3 15 C 0 km/h
413 18-09-2009 10:37:02 15.8 C 9.29 g/m*3 15.8 C 0 km/h
414 18-09-2009 10:49:02 16.4 C 9.49 g/m*3 16.4 C 0 km/h
415 18-09-2009 11:01:02 17 C 9.55 g/m*3 17 C 0 km/h
416 18-09-2009 11:13:02 17.5 C 9.69 g/m*3 17.5 C 0 km/h
417 18-09-2009 11:25:02 17.7 C 9.66 g/m*3 17.7 C 0 km/h
418 18-09-2009 11:37:01 18.6 C 9.39 g/m*3 18.6 C 0 km/h
419 18-09-2009 11:49:02 19.1 C 8.85 g/m*3 19.1 C 0 km/h
420 18-09-2009 12:01:01 19.5 C 8.73 g/m*3 19.5 C 0 km/h
421 18-09-2009 12:13:01 19.7 C 8.83 g/m*3 19.7 C 0 km/h
422 18-09-2009 12:25:01 20 C 8.81 g/m*3 20 C 0 km/h
423 18-09-2009 12:37:02 20.3 C 8.97 g/m*3 20.3 C 0 km/h
424 18-09-2009 12:49:02 20.6 C 9.13 g/m*3 20.6 C 0 km/h
425 18-09-2009 13:01:02 21 C 9.16 g/m*3 21 C 0 km/h
Sensor: Nr:Datum:Temp:Abs-Feuchte:Windchill:Wind:
Aussen-T/F 426 18-09-2009 13:13:02 21.5 C 9.24 g/m*3 21.5 C 0 km/h
427 18-09-2009 13:25:02 21.9 C 9.26 g/m*3 21.9 C 0 km/h
428 18-09-2009 13:37:02 22.7 C 9.29 g/m*3 22.7 C 0 km/h
429 18-09-2009 13:49:01 23 C 8.84 g/m*3 23 C 0 km/h
430 18-09-2009 14:01:02 23.6 C 8.93 g/m*3 23.6 C 0 km/h
431 18-09-2009 14:13:02 24.1 C 8.75 g/m*3 24.1 C 0 km/h
432 18-09-2009 14:25:01 24.7 C 9.05 g/m*3 24.7 C 0 km/h
433 18-09-2009 14:37:01 24.4 C 8.46 g/m*3 24.4 C 0 km/h
434 18-09-2009 14:49:01 23.7 C 8.98 g/m*3 23.7 C 0 km/h
435 18-09-2009 15:01:02 23.6 C 9.15 g/m*3 23.6 C 0 km/h
436 18-09-2009 15:13:02 23.9 C 9.3 g/m*3 23.9 C 0 km/h
437 18-09-2009 15:25:02 24.9 C 8.7 g/m*3 24.9 C 0 km/h
438 18-09-2009 15:37:01 25.8 C 8.91 g/m*3 25.8 C 0 km/h
439 18-09-2009 15:49:01 25.5 C 9.47 g/m*3 25.5 C 0 km/h
440 18-09-2009 16:01:01 25 C 9.44 g/m*3 25 C 0 km/h
441 18-09-2009 16:13:01 24 C 10.01 g/m*3 24 C 0 km/h
442 18-09-2009 16:25:02 23.4 C 10.72 g/m*3 23.4 C 0 km/h
443 18-09-2009 16:37:01 23.3 C 10.66 g/m*3 23.3 C 0 km/h
444 18-09-2009 16:49:02 23.1 C 10.54 g/m*3 23.1 C 0 km/h
445 18-09-2009 17:01:01 23.2 C 11.02 g/m*3 23.2 C 0 km/h
446 18-09-2009 17:13:01 22.9 C 11.24 g/m*3 22.9 C 0 km/h
447 18-09-2009 17:25:02 24.5 C 10.97 g/m*3 24.5 C 0 km/h
448 18-09-2009 17:37:01 25.7 C 10.53 g/m*3 25.7 C 0 km/h
449 18-09-2009 17:49:02 26.7 C 9.87 g/m*3 26.7 C 0 km/h
450 18-09-2009 18:01:02 26.6 C 9.57 g/m*3 26.6 C 0 km/h
Sensor: Nr:Datum:Temp:Abs-Feuchte:Windchill:Wind:
Aussen-T/F 451 18-09-2009 18:13:02 26.3 C 9.16 g/m*3 26.3 C 0 km/h
452 18-09-2009 18:25:02 25.7 C 9.58 g/m*3 25.7 C 0 km/h
453 18-09-2009 18:37:02 24.4 C 10.01 g/m*3 24.4 C 0 km/h
454 18-09-2009 18:49:02 23.2 C 10.19 g/m*3 23.2 C 0 km/h
455 18-09-2009 19:01:02 22.4 C 10.72 g/m*3 22.4 C 0 km/h
456 18-09-2009 19:13:02 21.7 C 10.68 g/m*3 21.7 C 0 km/h
457 18-09-2009 19:25:01 21.1 C 10.69 g/m*3 21.1 C 0 km/h
458 18-09-2009 19:37:02 20.8 C 10.68 g/m*3 20.8 C 0 km/h
459 18-09-2009 19:49:02 20.4 C 10.79 g/m*3 20.4 C 0 km/h
460 18-09-2009 20:01:02 20.1 C 10.78 g/m*3 20.1 C 0 km/h
461 18-09-2009 20:13:02 20 C 10.71 g/m*3 20 C 0 km/h
462 18-09-2009 20:25:02 19.9 C 10.82 g/m*3 19.9 C 0 km/h
463 18-09-2009 20:37:02 20 C 10.89 g/m*3 20 C 0 km/h
464 18-09-2009 20:49:02 20.1 C 10.95 g/m*3 20.1 C 0 km/h
465 18-09-2009 21:01:02 20 C 11.06 g/m*3 20 C 0 km/h
466 18-09-2009 21:13:02 19.9 C 11.17 g/m*3 19.9 C 0 km/h
467 18-09-2009 21:25:02 19.8 C 11.27 g/m*3 19.8 C 0 km/h
468 18-09-2009 21:37:02 19.6 C 11.14 g/m*3 19.6 C 0 km/h
469 18-09-2009 21:49:01 19.5 C 10.91 g/m*3 19.5 C 0 km/h
470 18-09-2009 22:01:01 19.5 C 10.74 g/m*3 19.5 C 0 km/h
471 18-09-2009 22:13:01 19.5 C 10.74 g/m*3 19.5 C 0 km/h
472 18-09-2009 22:25:01 19.5 C 10.57 g/m*3 19.5 C 0 km/h
473 18-09-2009 22:37:02 19.6 C 10.47 g/m*3 19.6 C 0 km/h
474 18-09-2009 22:50:01 19.6 C 10.64 g/m*3 19.6 C 0 km/h
475 18-09-2009 23:02:01 19.6 C 10.47 g/m*3 19.6 C 0 km/h
Sensor: Nr:Datum:Temp:Abs-Feuchte:Windchill:Wind:
Aussen-T/F 476 18-09-2009 23:14:01 19.6 C 10.47 g/m*3 19.6 C 0 km/h
477 18-09-2009 23:26:01 19.5 C 10.41 g/m*3 19.5 C 0 km/h
478 18-09-2009 23:38:02 19.5 C 10.24 g/m*3 19.5 C 0 km/h
479 18-09-2009 23:50:02 19.5 C 10.24 g/m*3 19.5 C 0 km/h
480 19-09-2009 00:02:02 19.5 C 10.24 g/m*3 19.5 C 0 km/h
481 19-09-2009 00:14:02 19.4 C 10.18 g/m*3 19.4 C 0 km/h
482 19-09-2009 00:26:02 19.3 C 10.28 g/m*3 19.3 C 0 km/h
483 19-09-2009 00:38:02 19.2 C 10.39 g/m*3 19.2 C 0 km/h
484 19-09-2009 00:50:02 18.9 C 10.69 g/m*3 18.9 C 0 km/h
485 19-09-2009 01:02:02 18.7 C 10.73 g/m*3 18.7 C 0 km/h
486 19-09-2009 01:14:02 18.7 C 10.73 g/m*3 18.7 C 0 km/h
487 19-09-2009 01:26:02 18.6 C 10.82 g/m*3 18.6 C 0 km/h
488 19-09-2009 01:38:02 18.5 C 10.92 g/m*3 18.5 C 0 km/h
489 19-09-2009 01:50:02 18.4 C 10.85 g/m*3 18.4 C 0 km/h
490 19-09-2009 02:02:02 18.3 C 10.79 g/m*3 18.3 C 0 km/h
491 19-09-2009 02:14:02 18.1 C 10.66 g/m*3 18.1 C 0 km/h
492 19-09-2009 02:26:02 18.1 C 10.82 g/m*3 18.1 C 0 km/h
493 19-09-2009 02:38:02 18.1 C 10.97 g/m*3 18.1 C 0 km/h
494 19-09-2009 02:50:02 18.1 C 10.97 g/m*3 18.1 C 0 km/h
495 19-09-2009 03:02:02 17.9 C 10.99 g/m*3 17.9 C 0 km/h
496 19-09-2009 03:14:02 17.9 C 10.99 g/m*3 17.9 C 0 km/h
497 19-09-2009 03:26:03 17.9 C 10.69 g/m*3 17.9 C 0 km/h
498 19-09-2009 03:38:03 17.9 C 10.69 g/m*3 17.9 C 0 km/h
499 19-09-2009 03:50:03 17.9 C 10.54 g/m*3 17.9 C 0 km/h
500 19-09-2009 04:02:03 17.9 C 10.54 g/m*3 17.9 C 0 km/h
Sensor: Nr:Datum:Temp:Abs-Feuchte:Windchill:Wind:
Aussen-T/F 501 19-09-2009 04:14:03 17.9 C 10.54 g/m*3 17.9 C 0 km/h
502 19-09-2009 04:26:03 18 C 10.44 g/m*3 18 C 0 km/h
503 19-09-2009 04:38:03 17.9 C 10.54 g/m*3 17.9 C 0 km/h
504 19-09-2009 04:50:03 18 C 10.44 g/m*3 18 C 0 km/h
505 19-09-2009 05:02:03 18 C 10.29 g/m*3 18 C 0 km/h
506 19-09-2009 05:14:03 18 C 10.6 g/m*3 18 C 0 km/h
507 19-09-2009 05:26:03 17.9 C 10.69 g/m*3 17.9 C 0 km/h
508 19-09-2009 05:38:03 17.9 C 10.69 g/m*3 17.9 C 0 km/h
509 19-09-2009 05:50:03 17.8 C 10.78 g/m*3 17.8 C 0 km/h
510 19-09-2009 06:02:03 17.7 C 10.71 g/m*3 17.7 C 0 km/h
511 19-09-2009 06:14:03 17.5 C 10.73 g/m*3 17.5 C 0 km/h
512 19-09-2009 06:26:03 17.4 C 10.52 g/m*3 17.4 C 0 km/h
513 19-09-2009 06:38:03 17.3 C 10.61 g/m*3 17.3 C 0 km/h
514 19-09-2009 06:50:03 17.1 C 10.48 g/m*3 17.1 C 0 km/h
515 19-09-2009 07:02:03 16.9 C 10.5 g/m*3 16.9 C 0 km/h
516 19-09-2009 07:14:03 16.6 C 10.45 g/m*3 16.6 C 0 km/h
517 19-09-2009 07:26:04 16.6 C 10.45 g/m*3 16.6 C 0 km/h
518 19-09-2009 07:38:04 16.6 C 10.45 g/m*3 16.6 C 0 km/h
519 19-09-2009 07:50:04 16.6 C 10.45 g/m*3 16.6 C 0 km/h
520 19-09-2009 08:02:01 16.8 C 10.58 g/m*3 16.8 C 0 km/h
521 19-09-2009 08:14:01 17 C 10.56 g/m*3 17 C 0 km/h
522 19-09-2009 08:26:02 17.2 C 10.69 g/m*3 17.2 C 0 km/h
523 19-09-2009 08:38:01 17.5 C 10.73 g/m*3 17.5 C 0 km/h
524 19-09-2009 08:50:02 17.8 C 10.93 g/m*3 17.8 C 0 km/h
525 19-09-2009 09:02:02 17.9 C 10.69 g/m*3 17.9 C 0 km/h
Sensor: Nr:Datum:Temp:Abs-Feuchte:Windchill:Wind:
Aussen-T/F 526 19-09-2009 09:14:02 18 C 10.29 g/m*3 18 C 0 km/h
527 19-09-2009 09:26:02 18.2 C 10.26 g/m*3 18.2 C 0 km/h
528 19-09-2009 09:38:03 18.4 C 10.07 g/m*3 18.4 C 0 km/h
529 19-09-2009 09:50:02 18.6 C 10.03 g/m*3 18.6 C 0 km/h
530 19-09-2009 10:02:01 18.8 C 9.99 g/m*3 18.8 C 0 km/h
531 19-09-2009 10:14:01 19.1 C 9.67 g/m*3 19.1 C 0 km/h
532 19-09-2009 10:26:02 19.4 C 9.51 g/m*3 19.4 C 0 km/h
533 19-09-2009 10:38:02 20 C 9.33 g/m*3 20 C 0 km/h
534 19-09-2009 10:50:02 20.3 C 9.5 g/m*3 20.3 C 0 km/h
535 19-09-2009 11:02:03 20.2 C 9.62 g/m*3 20.2 C 0 km/h
536 19-09-2009 11:14:03 21.1 C 9.58 g/m*3 21.1 C 0 km/h
537 19-09-2009 11:26:02 22.2 C 9.42 g/m*3 22.2 C 0 km/h
538 19-09-2009 11:38:02 22 C 9.12 g/m*3 22 C 0 km/h
539 19-09-2009 11:50:01 22.3 C 9.68 g/m*3 22.3 C 0 km/h
540 19-09-2009 12:02:02 22.8 C 9.55 g/m*3 22.8 C 0 km/h
541 19-09-2009 12:14:02 22.7 C 9.5 g/m*3 22.7 C 0 km/h
542 19-09-2009 12:26:01 22.7 C 9.9 g/m*3 22.7 C 0 km/h
543 19-09-2009 12:38:02 22.9 C 9.81 g/m*3 22.9 C 0 km/h
544 19-09-2009 12:50:01 23.4 C 9.46 g/m*3 23.4 C 0 km/h
545 19-09-2009 13:02:02 23.8 C 9.9 g/m*3 23.8 C 0 km/h
546 19-09-2009 13:14:02 24 C 10.01 g/m*3 24 C 0 km/h
547 19-09-2009 13:26:01 24.3 C 9.96 g/m*3 24.3 C 0 km/h
548 19-09-2009 13:38:02 24.7 C 10.19 g/m*3 24.7 C 0 km/h
549 19-09-2009 13:50:01 25 C 9.44 g/m*3 25 C 0 km/h
550 19-09-2009 14:02:02 25.5 C 9.47 g/m*3 25.5 C 0 km/h
Sensor: Nr:Datum:Temp:Abs-Feuchte:Windchill:Wind:
Aussen-T/F 551 19-09-2009 14:14:02 26.1 C 9.55 g/m*3 26.1 C 0 km/h
552 19-09-2009 14:26:02 26.2 C 9.35 g/m*3 26.2 C 0 km/h
553 19-09-2009 14:38:02 26.7 C 9.37 g/m*3 26.7 C 0 km/h
554 19-09-2009 14:50:01 26.2 C 10.34 g/m*3 26.2 C 0 km/h
555 19-09-2009 15:02:02 27 C 9.26 g/m*3 27 C 0 km/h
556 19-09-2009 15:14:02 27.6 C 9.31 g/m*3 27.6 C 0 km/h
557 19-09-2009 15:26:02 27.5 C 9.79 g/m*3 27.5 C 0 km/h
558 19-09-2009 15:38:01 28.5 C 9.22 g/m*3 28.5 C 0 km/h
559 19-09-2009 15:50:02 28.5 C 9.22 g/m*3 28.5 C 0 km/h
560 19-09-2009 16:02:01 27.9 C 10.01 g/m*3 27.9 C 0 km/h
561 19-09-2009 16:14:01 27.3 C 10.47 g/m*3 27.3 C 0 km/h
562 19-09-2009 16:26:02 26.6 C 10.82 g/m*3 26.6 C 0 km/h
563 19-09-2009 16:38:01 25.8 C 11.32 g/m*3 25.8 C 0 km/h
564 19-09-2009 16:50:02 25.5 C 10.89 g/m*3 25.5 C 0 km/h
565 19-09-2009 17:02:02 26.4 C 10.7 g/m*3 26.4 C 0 km/h
566 19-09-2009 17:14:02 28 C 9.52 g/m*3 28 C 0 km/h
567 19-09-2009 17:26:02 27.7 C 9.9 g/m*3 27.7 C 0 km/h
568 19-09-2009 17:38:03 26.5 C 10.26 g/m*3 26.5 C 0 km/h
569 19-09-2009 17:50:02 25.6 C 10.71 g/m*3 25.6 C 0 km/h
570 19-09-2009 18:02:01 24.8 C 11.15 g/m*3 24.8 C 0 km/h
571 19-09-2009 18:14:01 24.2 C 11.44 g/m*3 24.2 C 0 km/h
572 19-09-2009 18:26:02 23.8 C 11.62 g/m*3 23.8 C 0 km/h
573 19-09-2009 18:38:02 23.4 C 11.57 g/m*3 23.4 C 0 km/h
574 19-09-2009 18:50:02 22.9 C 11.65 g/m*3 22.9 C 0 km/h
575 19-09-2009 19:02:03 22.5 C 11.58 g/m*3 22.5 C 0 km/h
Sensor: Nr:Datum:Temp:Abs-Feuchte:Windchill:Wind:
Aussen-T/F 576 19-09-2009 19:14:03 22.4 C 11.52 g/m*3 22.4 C 0 km/h
577 19-09-2009 19:26:02 22.2 C 11.39 g/m*3 22.2 C 0 km/h
578 19-09-2009 19:38:02 21.8 C 11.51 g/m*3 21.8 C 0 km/h
579 19-09-2009 19:50:01 21.7 C 11.64 g/m*3 21.7 C 0 km/h
580 19-09-2009 20:02:02 21.6 C 11.76 g/m*3 21.6 C 0 km/h
581 19-09-2009 20:14:02 21.6 C 11.76 g/m*3 21.6 C 0 km/h
582 19-09-2009 20:26:01 21.6 C 11.76 g/m*3 21.6 C 0 km/h
583 19-09-2009 20:38:02 21.2 C 12.42 g/m*3 21.2 C 0 km/h
584 19-09-2009 20:50:01 19.7 C 13.41 g/m*3 19.7 C 0 km/h
585 19-09-2009 21:02:01 19.2 C 13.85 g/m*3 19.2 C 0 km/h
586 19-09-2009 21:14:01 19.3 C 13.93 g/m*3 19.3 C 0 km/h
587 19-09-2009 21:26:02 19.2 C 13.85 g/m*3 19.2 C 0 km/h
588 19-09-2009 21:38:02 19 C 13.53 g/m*3 19 C 0 km/h
589 19-09-2009 21:50:02 19.2 C 13.36 g/m*3 19.2 C 0 km/h
590 19-09-2009 22:02:02 19.4 C 13.01 g/m*3 19.4 C 0 km/h
591 19-09-2009 22:14:02 19.5 C 12.92 g/m*3 19.5 C 0 km/h
592 19-09-2009 22:26:02 19.3 C 12.94 g/m*3 19.3 C 0 km/h
593 19-09-2009 22:38:02 19.3 C 12.94 g/m*3 19.3 C 0 km/h
594 19-09-2009 22:51:02 19 C 12.71 g/m*3 19 C 0 km/h
595 19-09-2009 23:03:03 18.7 C 12.81 g/m*3 18.7 C 0 km/h
596 19-09-2009 23:15:03 18.4 C 12.58 g/m*3 18.4 C 0 km/h
597 19-09-2009 23:27:03 18.2 C 12.59 g/m*3 18.2 C 0 km/h
598 19-09-2009 23:39:03 18.1 C 12.52 g/m*3 18.1 C 0 km/h
599 19-09-2009 23:51:03 17.9 C 12.52 g/m*3 17.9 C 0 km/h
600 20-09-2009 00:03:03 17.7 C 12.52 g/m*3 17.7 C 0 km/h
Sensor: Nr:Datum:Temp:Abs-Feuchte:Windchill:Wind:
Aussen-T/F 601 20-09-2009 00:15:03 17.6 C 12.45 g/m*3 17.6 C 0 km/h
602 20-09-2009 00:27:03 17.5 C 12.37 g/m*3 17.5 C 0 km/h
603 20-09-2009 00:39:03 17.4 C 12.45 g/m*3 17.4 C 0 km/h
604 20-09-2009 00:51:03 17.3 C 12.37 g/m*3 17.3 C 0 km/h
605 20-09-2009 01:03:03 17.2 C 12.3 g/m*3 17.2 C 0 km/h
606 20-09-2009 01:15:03 17.1 C 12.23 g/m*3 17.1 C 0 km/h
607 20-09-2009 01:27:03 17.2 C 12.45 g/m*3 17.2 C 0 km/h
608 20-09-2009 01:39:03 17.1 C 12.37 g/m*3 17.1 C 0 km/h
609 20-09-2009 01:51:03 17.2 C 12.45 g/m*3 17.2 C 0 km/h
610 20-09-2009 02:03:03 17.4 C 12.6 g/m*3 17.4 C 0 km/h
611 20-09-2009 02:15:03 17.3 C 12.37 g/m*3 17.3 C 0 km/h
612 20-09-2009 02:27:03 17.1 C 12.23 g/m*3 17.1 C 0 km/h
613 20-09-2009 02:39:03 17.2 C 12.3 g/m*3 17.2 C 0 km/h
614 20-09-2009 02:51:04 17.2 C 12.3 g/m*3 17.2 C 0 km/h
615 20-09-2009 03:03:04 16.9 C 12.23 g/m*3 16.9 C 0 km/h
616 20-09-2009 03:15:04 16.6 C 12.15 g/m*3 16.6 C 0 km/h
617 20-09-2009 03:27:04 16.6 C 12.29 g/m*3 16.6 C 0 km/h
618 20-09-2009 03:39:04 16.6 C 12.29 g/m*3 16.6 C 0 km/h
619 20-09-2009 03:51:04 16.7 C 12.36 g/m*3 16.7 C 0 km/h
620 20-09-2009 04:03:04 16.7 C 12.36 g/m*3 16.7 C 0 km/h
621 20-09-2009 04:15:04 16.4 C 12 g/m*3 16.4 C 0 km/h
622 20-09-2009 04:27:04 16.4 C 12 g/m*3 16.4 C 0 km/h
623 20-09-2009 04:39:04 16.3 C 12.07 g/m*3 16.3 C 0 km/h
624 20-09-2009 04:51:04 16.2 C 11.86 g/m*3 16.2 C 0 km/h
625 20-09-2009 05:03:04 16 C 11.72 g/m*3 16 C 0 km/h
Sensor: Nr:Datum:Temp:Abs-Feuchte:Windchill:Wind:
Aussen-T/F 626 20-09-2009 05:15:04 15.8 C 11.85 g/m*3 15.8 C 0 km/h
627 20-09-2009 05:27:04 15.6 C 11.7 g/m*3 15.6 C 0 km/h
628 20-09-2009 05:39:04 15.4 C 11.69 g/m*3 15.4 C 0 km/h
629 20-09-2009 05:51:04 15.3 C 11.62 g/m*3 15.3 C 0 km/h
630 20-09-2009 06:03:04 15.3 C 11.75 g/m*3 15.3 C 0 km/h
631 20-09-2009 06:15:04 15.4 C 11.96 g/m*3 15.4 C 0 km/h
632 20-09-2009 06:27:04 15.2 C 11.68 g/m*3 15.2 C 0 km/h
633 20-09-2009 06:39:05 15.2 C 11.81 g/m*3 15.2 C 0 km/h
634 20-09-2009 06:51:05 15.4 C 11.96 g/m*3 15.4 C 0 km/h
635 20-09-2009 07:03:05 15.3 C 11.88 g/m*3 15.3 C 0 km/h
636 20-09-2009 07:15:05 15.2 C 11.81 g/m*3 15.2 C 0 km/h
637 20-09-2009 07:27:05 15.2 C 11.81 g/m*3 15.2 C 0 km/h
638 20-09-2009 07:39:05 15.4 C 11.96 g/m*3 15.4 C 0 km/h
639 20-09-2009 07:51:05 15.4 C 11.96 g/m*3 15.4 C 0 km/h
640 20-09-2009 08:03:05 15.6 C 12.1 g/m*3 15.6 C 0 km/h
641 20-09-2009 08:15:05 15.8 C 12.25 g/m*3 15.8 C 0 km/h
642 20-09-2009 08:27:05 15.9 C 12.19 g/m*3 15.9 C 0 km/h
643 20-09-2009 08:39:02 15.8 C 12.11 g/m*3 15.8 C 0 km/h
644 20-09-2009 08:51:02 15.9 C 12.05 g/m*3 15.9 C 0 km/h
645 20-09-2009 09:03:02 16.1 C 12.06 g/m*3 16.1 C 0 km/h
646 20-09-2009 09:15:02 16.3 C 12.21 g/m*3 16.3 C 0 km/h
647 20-09-2009 09:27:03 16.5 C 12.22 g/m*3 16.5 C 0 km/h
648 20-09-2009 09:39:02 16.6 C 12.15 g/m*3 16.6 C 0 km/h
649 20-09-2009 09:51:02 16.9 C 12.23 g/m*3 16.9 C 0 km/h
650 20-09-2009 10:03:01 17.4 C 12.3 g/m*3 17.4 C 0 km/h
Sensor: Nr:Datum:Temp:Abs-Feuchte:Windchill:Wind:
Aussen-T/F 651 20-09-2009 10:15:02 17.7 C 12.22 g/m*3 17.7 C 0 km/h
652 20-09-2009 10:27:02 18.3 C 12.35 g/m*3 18.3 C 0 km/h
653 20-09-2009 10:39:01 18.5 C 12.18 g/m*3 18.5 C 0 km/h
654 20-09-2009 10:51:02 18.8 C 12.24 g/m*3 18.8 C 0 km/h
655 20-09-2009 11:03:02 18.9 C 12.15 g/m*3 18.9 C 0 km/h
656 20-09-2009 11:15:02 19.4 C 12.01 g/m*3 19.4 C 0 km/h
657 20-09-2009 11:27:02 20.2 C 12.06 g/m*3 20.2 C 0 km/h
658 20-09-2009 11:39:02 20.8 C 11.95 g/m*3 20.8 C 0 km/h
659 20-09-2009 11:51:02 21.3 C 11.74 g/m*3 21.3 C 0 km/h
660 20-09-2009 12:03:02 22 C 11.84 g/m*3 22 C 0 km/h
661 20-09-2009 12:15:01 22 C 11.84 g/m*3 22 C 0 km/h
662 20-09-2009 12:27:01 22.5 C 12.18 g/m*3 22.5 C 0 km/h
663 20-09-2009 12:39:02 23.5 C 12.27 g/m*3 23.5 C 0 km/h
664 20-09-2009 12:51:02 23.8 C 11.83 g/m*3 23.8 C 0 km/h
665 20-09-2009 13:03:02 24.1 C 11.38 g/m*3 24.1 C 0 km/h
666 20-09-2009 13:15:02 24.3 C 11.29 g/m*3 24.3 C 0 km/h
667 20-09-2009 13:27:02 24.6 C 11.25 g/m*3 24.6 C 0 km/h
668 20-09-2009 13:39:02 25.4 C 11.06 g/m*3 25.4 C 0 km/h
669 20-09-2009 13:51:02 26.3 C 10.64 g/m*3 26.3 C 0 km/h
670 20-09-2009 14:03:02 26.4 C 10.21 g/m*3 26.4 C 0 km/h
671 20-09-2009 14:15:02 25.9 C 10.41 g/m*3 25.9 C 0 km/h
672 20-09-2009 14:27:02 26.2 C 9.85 g/m*3 26.2 C 0 km/h
673 20-09-2009 14:39:02 26 C 9.74 g/m*3 26 C 0 km/h
674 20-09-2009 14:51:02 25.7 C 10.29 g/m*3 25.7 C 0 km/h
675 20-09-2009 15:03:02 25.5 C 9.94 g/m*3 25.5 C 0 km/h
Sensor: Nr:Datum:Temp:Abs-Feuchte:Windchill:Wind:
Aussen-T/F 676 20-09-2009 15:15:03 25.2 C 10.48 g/m*3 25.2 C 0 km/h
677 20-09-2009 15:27:03 26.9 C 9.73 g/m*3 26.9 C 0 km/h
678 20-09-2009 15:39:02 27.6 C 9.84 g/m*3 27.6 C 0 km/h
679 20-09-2009 15:51:02 27.3 C 9.16 g/m*3 27.3 C 0 km/h
680 20-09-2009 16:03:02 27 C 8.75 g/m*3 27 C 0 km/h
681 20-09-2009 16:15:02 27.4 C 8.95 g/m*3 27.4 C 0 km/h
682 20-09-2009 16:27:02 27.3 C 8.9 g/m*3 27.3 C 0 km/h
683 20-09-2009 16:39:02 26.8 C 9.16 g/m*3 26.8 C 0 km/h
684 20-09-2009 16:51:02 26.7 C 8.61 g/m*3 26.7 C 0 km/h
685 20-09-2009 17:03:02 26.9 C 8.45 g/m*3 26.9 C 0 km/h
686 20-09-2009 17:15:02 26.5 C 8.76 g/m*3 26.5 C 0 km/h
687 20-09-2009 17:27:02 26.1 C 9.06 g/m*3 26.1 C 0 km/h
688 20-09-2009 17:39:02 26.4 C 9.21 g/m*3 26.4 C 0 km/h
689 20-09-2009 17:51:02 25.8 C 9.15 g/m*3 25.8 C 0 km/h
690 20-09-2009 18:03:01 24.7 C 9.51 g/m*3 24.7 C 0 km/h
691 20-09-2009 18:15:02 24 C 9.57 g/m*3 24 C 0 km/h
692 20-09-2009 18:27:02 23.7 C 9.84 g/m*3 23.7 C 0 km/h
693 20-09-2009 18:39:01 23.7 C 10.48 g/m*3 23.7 C 0 km/h
694 20-09-2009 18:51:02 23.3 C 10.45 g/m*3 23.3 C 0 km/h
695 20-09-2009 19:03:01 22.7 C 10.71 g/m*3 22.7 C 0 km/h
696 20-09-2009 19:15:01 22.1 C 10.74 g/m*3 22.1 C 0 km/h
697 20-09-2009 19:27:01 21.7 C 11.06 g/m*3 21.7 C 0 km/h
698 20-09-2009 19:39:02 21.2 C 11.12 g/m*3 21.2 C 0 km/h
699 20-09-2009 19:51:02 20.9 C 10.93 g/m*3 20.9 C 0 km/h
700 20-09-2009 20:03:02 20.7 C 10.98 g/m*3 20.7 C 0 km/h
Sensor: Nr:Datum:Temp:Abs-Feuchte:Windchill:Wind:
Aussen-T/F 701 20-09-2009 20:15:02 20.4 C 10.97 g/m*3 20.4 C 0 km/h
702 20-09-2009 20:27:02 20.1 C 10.95 g/m*3 20.1 C 0 km/h
703 20-09-2009 20:39:02 19.9 C 11.34 g/m*3 19.9 C 0 km/h
704 20-09-2009 20:51:01 19.9 C 11.34 g/m*3 19.9 C 0 km/h
705 20-09-2009 21:03:02 20 C 11.23 g/m*3 20 C 0 km/h
706 20-09-2009 21:15:01 20.1 C 11.3 g/m*3 20.1 C 0 km/h
707 20-09-2009 21:27:01 19.7 C 11.55 g/m*3 19.7 C 0 km/h
708 20-09-2009 21:39:02 19.3 C 11.44 g/m*3 19.3 C 0 km/h
709 20-09-2009 21:51:02 19.1 C 11.31 g/m*3 19.1 C 0 km/h
710 20-09-2009 22:03:01 18.8 C 11.6 g/m*3 18.8 C 0 km/h
711 20-09-2009 22:15:02 18.5 C 11.55 g/m*3 18.5 C 0 km/h
712 20-09-2009 22:27:02 18.5 C 11.55 g/m*3 18.5 C 0 km/h
713 20-09-2009 22:39:02 18.4 C 11.48 g/m*3 18.4 C 0 km/h
714 20-09-2009 22:51:01 18.5 C 11.71 g/m*3 18.5 C 0 km/h
715 20-09-2009 23:03:02 18.7 C 11.85 g/m*3 18.7 C 0 km/h
716 20-09-2009 23:15:01 18.9 C 11.83 g/m*3 18.9 C 0 km/h
717 20-09-2009 23:27:01 19 C 11.73 g/m*3 19 C 0 km/h
718 20-09-2009 23:39:02 19 C 11.73 g/m*3 19 C 0 km/h
719 20-09-2009 23:51:02 19.1 C 11.97 g/m*3 19.1 C 0 km/h
720 21-09-2009 00:03:02 18.7 C 11.85 g/m*3 18.7 C 0 km/h
721 21-09-2009 00:15:02 18.5 C 12.02 g/m*3 18.5 C 0 km/h
722 21-09-2009 00:27:02 18.3 C 12.04 g/m*3 18.3 C 0 km/h
723 21-09-2009 00:39:02 18.1 C 12.05 g/m*3 18.1 C 0 km/h
724 21-09-2009 00:51:01 18 C 12.13 g/m*3 18 C 0 km/h
725 21-09-2009 01:03:02 17.8 C 12.14 g/m*3 17.8 C 0 km/h
Sensor: Nr:Datum:Temp:Abs-Feuchte:Windchill:Wind:
Aussen-T/F 726 21-09-2009 01:15:02 17.8 C 12.29 g/m*3 17.8 C 0 km/h
727 21-09-2009 01:27:02 17.7 C 12.22 g/m*3 17.7 C 0 km/h
728 21-09-2009 01:39:01 17.6 C 12.3 g/m*3 17.6 C 0 km/h
729 21-09-2009 01:51:02 17.5 C 12.23 g/m*3 17.5 C 0 km/h
730 21-09-2009 02:03:01 17.5 C 12.23 g/m*3 17.5 C 0 km/h
731 21-09-2009 02:15:02 17.5 C 12.23 g/m*3 17.5 C 0 km/h
732 21-09-2009 02:27:02 17.5 C 12.23 g/m*3 17.5 C 0 km/h
733 21-09-2009 02:39:01 17.4 C 12.15 g/m*3 17.4 C 0 km/h
734 21-09-2009 02:52:04 17.5 C 12.37 g/m*3 17.5 C 0 km/h
735 21-09-2009 03:04:04 17.5 C 12.37 g/m*3 17.5 C 0 km/h
736 21-09-2009 03:16:03 17.6 C 12.3 g/m*3 17.6 C 0 km/h
737 21-09-2009 03:28:03 17.7 C 12.37 g/m*3 17.7 C 0 km/h
738 21-09-2009 03:40:01 17.8 C 12.29 g/m*3 17.8 C 0 km/h
739 21-09-2009 03:52:01 17.9 C 12.37 g/m*3 17.9 C 0 km/h
740 21-09-2009 04:04:01 17.9 C 12.21 g/m*3 17.9 C 0 km/h
741 21-09-2009 04:16:02 17.9 C 12.21 g/m*3 17.9 C 0 km/h
742 21-09-2009 04:28:02 17.9 C 12.21 g/m*3 17.9 C 0 km/h
743 21-09-2009 04:40:01 17.9 C 12.21 g/m*3 17.9 C 0 km/h
744 21-09-2009 04:52:03 17.7 C 12.22 g/m*3 17.7 C 0 km/h
745 21-09-2009 05:04:02 17.7 C 12.07 g/m*3 17.7 C 0 km/h
746 21-09-2009 05:16:02 17.7 C 12.07 g/m*3 17.7 C 0 km/h
747 21-09-2009 05:28:02 17.6 C 12 g/m*3 17.6 C 0 km/h
748 21-09-2009 05:40:02 17.5 C 11.93 g/m*3 17.5 C 0 km/h
749 21-09-2009 05:52:02 17.4 C 11.86 g/m*3 17.4 C 0 km/h
750 21-09-2009 06:04:02 17.4 C 11.86 g/m*3 17.4 C 0 km/h
Sensor: Nr:Datum:Temp:Abs-Feuchte:Windchill:Wind:
Aussen-T/F 751 21-09-2009 06:16:02 17.4 C 11.86 g/m*3 17.4 C 0 km/h
752 21-09-2009 06:28:03 17.5 C 11.78 g/m*3 17.5 C 0 km/h
753 21-09-2009 06:40:01 17.3 C 11.79 g/m*3 17.3 C 0 km/h
754 21-09-2009 06:52:02 17.5 C 11.93 g/m*3 17.5 C 0 km/h
755 21-09-2009 07:04:01 17.3 C 11.64 g/m*3 17.3 C 0 km/h
756 21-09-2009 07:16:01 17.4 C 11.71 g/m*3 17.4 C 0 km/h
757 21-09-2009 07:28:01 17.3 C 11.79 g/m*3 17.3 C 0 km/h
758 21-09-2009 07:40:02 17.4 C 11.86 g/m*3 17.4 C 0 km/h
759 21-09-2009 07:52:02 17.3 C 11.79 g/m*3 17.3 C 0 km/h
760 21-09-2009 08:04:02 17.4 C 11.71 g/m*3 17.4 C 0 km/h
761 21-09-2009 08:16:02 17.2 C 11.57 g/m*3 17.2 C 0 km/h
762 21-09-2009 08:28:02 16.9 C 11.65 g/m*3 16.9 C 0 km/h
763 21-09-2009 08:40:02 16.8 C 11.58 g/m*3 16.8 C 0 km/h
764 21-09-2009 08:52:02 17 C 11.58 g/m*3 17 C 0 km/h
765 21-09-2009 09:04:03 17.3 C 11.64 g/m*3 17.3 C 0 km/h
766 21-09-2009 09:16:02 17.1 C 11.35 g/m*3 17.1 C 0 km/h
767 21-09-2009 09:28:02 17.1 C 11.35 g/m*3 17.1 C 0 km/h
768 21-09-2009 09:40:02 17 C 11.29 g/m*3 17 C 0 km/h
769 21-09-2009 09:52:01 17.1 C 11.35 g/m*3 17.1 C 0 km/h
770 21-09-2009 10:04:02 17.7 C 11.16 g/m*3 17.7 C 0 km/h
771 21-09-2009 10:16:01 18.5 C 11.39 g/m*3 18.5 C 0 km/h
772 21-09-2009 10:28:01 19.5 C 11.08 g/m*3 19.5 C 0 km/h
773 21-09-2009 10:40:01 19.8 C 10.93 g/m*3 19.8 C 0 km/h
774 21-09-2009 10:52:01 20.3 C 10.9 g/m*3 20.3 C 0 km/h
775 21-09-2009 11:04:02 20 C 10.37 g/m*3 20 C 0 km/h
Sensor: Nr:Datum:Temp:Abs-Feuchte:Windchill:Wind:
Aussen-T/F 776 21-09-2009 11:16:01 19.7 C 10.36 g/m*3 19.7 C 0 km/h
777 21-09-2009 11:28:01 19.6 C 10.47 g/m*3 19.6 C 0 km/h
778 21-09-2009 11:40:01 19.6 C 10.47 g/m*3 19.6 C 0 km/h
779 21-09-2009 11:52:01 19.3 C 10.28 g/m*3 19.3 C 0 km/h
780 21-09-2009 12:04:02 19.2 C 10.39 g/m*3 19.2 C 0 km/h
781 21-09-2009 12:16:01 19.7 C 10.53 g/m*3 19.7 C 0 km/h
782 21-09-2009 12:28:01 21.2 C 10.56 g/m*3 21.2 C 0 km/h
783 21-09-2009 12:40:01 21.6 C 10.43 g/m*3 21.6 C 0 km/h
784 21-09-2009 12:52:01 21.2 C 10.19 g/m*3 21.2 C 0 km/h
785 21-09-2009 13:04:02 21.3 C 10.07 g/m*3 21.3 C 0 km/h
786 21-09-2009 13:16:02 20.8 C 10.14 g/m*3 20.8 C 0 km/h
787 21-09-2009 13:28:02 20.8 C 9.96 g/m*3 20.8 C 0 km/h
788 21-09-2009 13:40:01 20.5 C 9.79 g/m*3 20.5 C 0 km/h
789 21-09-2009 13:52:01 20.1 C 9.56 g/m*3 20.1 C 0 km/h
790 21-09-2009 14:04:01 20.5 C 9.61 g/m*3 20.5 C 0 km/h
791 21-09-2009 14:16:02 20.4 C 9.2 g/m*3 20.4 C 0 km/h
792 21-09-2009 14:28:02 20.6 C 9.31 g/m*3 20.6 C 0 km/h
793 21-09-2009 14:40:01 21.3 C 9.32 g/m*3 21.3 C 0 km/h
794 21-09-2009 14:52:01 22.3 C 9.48 g/m*3 22.3 C 0 km/h
795 21-09-2009 15:04:01 22.8 C 9.14 g/m*3 22.8 C 0 km/h
796 21-09-2009 15:16:02 23.4 C 9.25 g/m*3 23.4 C 0 km/h
797 21-09-2009 15:28:02 23.8 C 9.03 g/m*3 23.8 C 0 km/h
798 21-09-2009 15:40:01 23.6 C 8.93 g/m*3 23.6 C 0 km/h
799 21-09-2009 15:52:01 24 C 8.92 g/m*3 24 C 0 km/h
800 21-09-2009 16:04:01 24.5 C 8.95 g/m*3 24.5 C 0 km/h
Sensor: Nr:Datum:Temp:Abs-Feuchte:Windchill:Wind:
Aussen-T/F 801 21-09-2009 16:16:02 25 C 8.52 g/m*3 25 C 0 km/h
802 21-09-2009 16:28:02 24.5 C 8.5 g/m*3 24.5 C 0 km/h
803 21-09-2009 16:40:01 22.8 C 8.74 g/m*3 22.8 C 0 km/h
804 21-09-2009 16:52:03 22.7 C 8.89 g/m*3 22.7 C 0 km/h
805 21-09-2009 17:04:02 22.4 C 9.14 g/m*3 22.4 C 0 km/h
806 21-09-2009 17:16:02 22.6 C 8.84 g/m*3 22.6 C 0 km/h
807 21-09-2009 17:28:02 22.7 C 8.89 g/m*3 22.7 C 0 km/h
808 21-09-2009 17:40:02 22.8 C 8.53 g/m*3 22.8 C 0 km/h
809 21-09-2009 17:52:02 22.5 C 8.39 g/m*3 22.5 C 0 km/h
810 21-09-2009 18:04:02 22.5 C 8.59 g/m*3 22.5 C 0 km/h
811 21-09-2009 18:16:02 21.8 C 8.44 g/m*3 21.8 C 0 km/h
812 21-09-2009 18:28:03 21.2 C 8.52 g/m*3 21.2 C 0 km/h
813 21-09-2009 18:40:01 21 C 8.61 g/m*3 21 C 0 km/h
814 21-09-2009 18:52:02 20.8 C 8.69 g/m*3 20.8 C 0 km/h
815 21-09-2009 19:04:01 20.4 C 8.67 g/m*3 20.4 C 0 km/h
816 21-09-2009 19:16:02 20 C 8.99 g/m*3 20 C 0 km/h
817 21-09-2009 19:28:02 19.4 C 9.34 g/m*3 19.4 C 0 km/h
818 21-09-2009 19:40:02 19.1 C 9.18 g/m*3 19.1 C 0 km/h
819 21-09-2009 19:52:02 18.5 C 9.33 g/m*3 18.5 C 0 km/h
820 21-09-2009 20:04:02 18.3 C 9.38 g/m*3 18.3 C 0 km/h
821 21-09-2009 20:16:02 18 C 9.22 g/m*3 18 C 0 km/h
822 21-09-2009 20:28:02 17.8 C 9.11 g/m*3 17.8 C 0 km/h
823 21-09-2009 20:40:03 17.5 C 9.24 g/m*3 17.5 C 0 km/h
824 21-09-2009 20:52:02 17.2 C 9.23 g/m*3 17.2 C 0 km/h
825 21-09-2009 21:05:02 17 C 9.26 g/m*3 17 C 0 km/h
Sensor: Nr:Datum:Temp:Abs-Feuchte:Windchill:Wind:
Aussen-T/F 826 21-09-2009 21:17:02 16.8 C 9.44 g/m*3 16.8 C 0 km/h
827 21-09-2009 21:29:02 16.7 C 9.52 g/m*3 16.7 C 0 km/h
828 21-09-2009 21:41:02 16.5 C 9.55 g/m*3 16.5 C 0 km/h
829 21-09-2009 21:53:02 16.2 C 9.65 g/m*3 16.2 C 0 km/h
830 21-09-2009 22:05:02 16.1 C 9.6 g/m*3 16.1 C 0 km/h
831 21-09-2009 22:17:02 15.9 C 9.75 g/m*3 15.9 C 0 km/h
832 21-09-2009 22:29:02 15.7 C 9.77 g/m*3 15.7 C 0 km/h
833 21-09-2009 22:41:02 15.5 C 9.65 g/m*3 15.5 C 0 km/h
834 21-09-2009 22:53:02 15.4 C 9.72 g/m*3 15.4 C 0 km/h
835 21-09-2009 23:05:02 15.2 C 9.61 g/m*3 15.2 C 0 km/h
836 21-09-2009 23:17:02 15.1 C 9.55 g/m*3 15.1 C 0 km/h
837 21-09-2009 23:29:02 14.8 C 9.75 g/m*3 14.8 C 0 km/h
838 21-09-2009 23:41:02 14.7 C 9.69 g/m*3 14.7 C 0 km/h
839 21-09-2009 23:53:02 14.5 C 9.7 g/m*3 14.5 C 0 km/h
840 22-09-2009 00:05:03 14.5 C 9.7 g/m*3 14.5 C 0 km/h
841 22-09-2009 00:17:03 14.2 C 9.52 g/m*3 14.2 C 0 km/h
842 22-09-2009 00:29:03 14 C 9.53 g/m*3 14 C 0 km/h
843 22-09-2009 00:41:03 14 C 9.41 g/m*3 14 C 0 km/h
844 22-09-2009 00:53:03 13.9 C 9.47 g/m*3 13.9 C 0 km/h
845 22-09-2009 01:05:03 13.8 C 9.53 g/m*3 13.8 C 0 km/h
846 22-09-2009 01:17:03 13.7 C 9.71 g/m*3 13.7 C 0 km/h
847 22-09-2009 01:29:03 13.5 C 9.59 g/m*3 13.5 C 0 km/h
848 22-09-2009 01:41:03 13.4 C 9.53 g/m*3 13.4 C 0 km/h
849 22-09-2009 01:53:03 13.3 C 9.59 g/m*3 13.3 C 0 km/h
850 22-09-2009 02:05:03 13.1 C 9.47 g/m*3 13.1 C 0 km/h
Sensor: Nr:Datum:Temp:Abs-Feuchte:Windchill:Wind:
Aussen-T/F 851 22-09-2009 02:17:03 13.1 C 9.47 g/m*3 13.1 C 0 km/h
852 22-09-2009 02:29:03 13 C 9.41 g/m*3 13 C 0 km/h
853 22-09-2009 02:41:03 12.8 C 9.52 g/m*3 12.8 C 0 km/h
854 22-09-2009 02:53:03 12.7 C 9.35 g/m*3 12.7 C 0 km/h
855 22-09-2009 03:05:03 12.6 C 9.4 g/m*3 12.6 C 0 km/h
856 22-09-2009 03:17:03 12.4 C 9.29 g/m*3 12.4 C 0 km/h
857 22-09-2009 03:29:03 12.4 C 9.29 g/m*3 12.4 C 0 km/h
858 22-09-2009 03:41:03 12.3 C 9.34 g/m*3 12.3 C 0 km/h
859 22-09-2009 03:53:04 12.2 C 9.28 g/m*3 12.2 C 0 km/h
860 22-09-2009 04:05:04 12.1 C 9.22 g/m*3 12.1 C 0 km/h
861 22-09-2009 04:17:04 12.1 C 9.22 g/m*3 12.1 C 0 km/h
862 22-09-2009 04:29:04 11.8 C 9.05 g/m*3 11.8 C 0 km/h
863 22-09-2009 04:41:04 11.7 C 9.1 g/m*3 11.7 C 0 km/h
864 22-09-2009 04:53:04 11.6 C 9.04 g/m*3 11.6 C 0 km/h
865 22-09-2009 05:05:04 11.6 C 9.15 g/m*3 11.6 C 0 km/h
866 22-09-2009 05:17:04 11.6 C 9.25 g/m*3 11.6 C 0 km/h
867 22-09-2009 05:29:04 11.6 C 9.25 g/m*3 11.6 C 0 km/h
868 22-09-2009 05:41:04 11.7 C 9.2 g/m*3 11.7 C 0 km/h
869 22-09-2009 05:53:04 11.6 C 9.15 g/m*3 11.6 C 0 km/h
870 22-09-2009 06:05:04 11.5 C 9.09 g/m*3 11.5 C 0 km/h
871 22-09-2009 06:17:02 11.4 C 9.03 g/m*3 11.4 C 0 km/h
872 22-09-2009 06:29:02 11.2 C 8.92 g/m*3 11.2 C 0 km/h
873 22-09-2009 06:41:02 11.1 C 8.86 g/m*3 11.1 C 0 km/h
874 22-09-2009 06:53:01 11.1 C 8.86 g/m*3 11.1 C 0 km/h
875 22-09-2009 07:05:02 11.2 C 8.92 g/m*3 11.2 C 0 km/h
Sensor: Nr:Datum:Temp:Abs-Feuchte:Windchill:Wind:
Aussen-T/F 876 22-09-2009 07:17:01 11.4 C 9.03 g/m*3 11.4 C 0 km/h
877 22-09-2009 07:29:01 11.4 C 9.03 g/m*3 11.4 C 0 km/h
878 22-09-2009 07:41:02 11.2 C 8.92 g/m*3 11.2 C 0 km/h
879 22-09-2009 07:53:01 11.4 C 9.03 g/m*3 11.4 C 0 km/h
880 22-09-2009 08:05:02 11.3 C 8.87 g/m*3 11.3 C 0 km/h
881 22-09-2009 08:17:01 11.1 C 8.76 g/m*3 11.1 C 0 km/h
882 22-09-2009 08:29:01 10.9 C 8.75 g/m*3 10.9 C 0 km/h
883 22-09-2009 08:41:02 11.1 C 8.86 g/m*3 11.1 C 0 km/h
884 22-09-2009 08:53:01 11.2 C 8.92 g/m*3 11.2 C 0 km/h
885 22-09-2009 09:05:02 11.5 C 8.99 g/m*3 11.5 C 0 km/h
886 22-09-2009 09:17:01 11.6 C 9.04 g/m*3 11.6 C 0 km/h
887 22-09-2009 09:29:01 11.7 C 9.1 g/m*3 11.7 C 0 km/h
888 22-09-2009 09:41:02 12 C 9.17 g/m*3 12 C 0 km/h
889 22-09-2009 09:53:02 12.1 C 9.01 g/m*3 12.1 C 0 km/h
890 22-09-2009 10:05:02 12.8 C 9.41 g/m*3 12.8 C 0 km/h
891 22-09-2009 10:17:02 13 C 9.07 g/m*3 13 C 0 km/h
892 22-09-2009 10:29:02 13 C 8.96 g/m*3 13 C 0 km/h
893 22-09-2009 10:41:02 13.2 C 9.19 g/m*3 13.2 C 0 km/h
894 22-09-2009 10:53:01 13.5 C 9.36 g/m*3 13.5 C 0 km/h
895 22-09-2009 11:05:02 14 C 9.53 g/m*3 14 C 0 km/h
896 22-09-2009 11:17:02 14.4 C 9.52 g/m*3 14.4 C 0 km/h
897 22-09-2009 11:29:02 14.9 C 9.69 g/m*3 14.9 C 0 km/h
898 22-09-2009 11:41:02 15.6 C 9.71 g/m*3 15.6 C 0 km/h
899 22-09-2009 11:53:02 16.4 C 10.05 g/m*3 16.4 C 0 km/h
900 22-09-2009 12:05:02 17.2 C 10.4 g/m*3 17.2 C 0 km/h
Sensor: Nr:Datum:Temp:Abs-Feuchte:Windchill:Wind:
Aussen-T/F 901 22-09-2009 12:17:02 17.8 C 10.02 g/m*3 17.8 C 0 km/h
902 22-09-2009 12:29:02 18.5 C 9.81 g/m*3 18.5 C 0 km/h
903 22-09-2009 12:41:02 18.9 C 9.56 g/m*3 18.9 C 0 km/h
904 22-09-2009 12:53:02 19.6 C 9.79 g/m*3 19.6 C 0 km/h
905 22-09-2009 13:05:02 20 C 9.68 g/m*3 20 C 0 km/h
906 22-09-2009 13:17:02 20.5 C 9.25 g/m*3 20.5 C 0 km/h
907 22-09-2009 13:29:02 21 C 9.34 g/m*3 21 C 0 km/h
908 22-09-2009 13:41:01 21.7 C 8.77 g/m*3 21.7 C 0 km/h
909 22-09-2009 13:53:02 22.2 C 8.05 g/m*3 22.2 C 0 km/h
910 22-09-2009 14:05:01 23.1 C 8.48 g/m*3 23.1 C 0 km/h
911 22-09-2009 14:17:02 23.7 C 7.91 g/m*3 23.7 C 0 km/h
912 22-09-2009 14:29:02 24.3 C 8.41 g/m*3 24.3 C 0 km/h
913 22-09-2009 14:41:01 24.7 C 8.15 g/m*3 24.7 C 0 km/h
914 22-09-2009 14:53:02 24.7 C 7.47 g/m*3 24.7 C 0 km/h
915 22-09-2009 15:05:02 25.4 C 7.77 g/m*3 25.4 C 0 km/h
916 22-09-2009 15:17:02 26.1 C 7.59 g/m*3 26.1 C 0 km/h
917 22-09-2009 15:29:02 26.4 C 7.97 g/m*3 26.4 C 0 km/h
918 22-09-2009 15:41:03 27.1 C 7.76 g/m*3 27.1 C 0 km/h
919 22-09-2009 15:53:02 27.8 C 7.8 g/m*3 27.8 C 0 km/h
920 22-09-2009 16:05:01 28.2 C 7.7 g/m*3 28.2 C 0 km/h
921 22-09-2009 16:17:02 29.1 C 7.22 g/m*3 29.1 C 0 km/h
922 22-09-2009 16:29:02 29.2 C 7.26 g/m*3 29.2 C 0 km/h
923 22-09-2009 16:41:02 28 C 8.16 g/m*3 28 C 0 km/h
924 22-09-2009 16:53:02 26 C 8.52 g/m*3 26 C 0 km/h
925 22-09-2009 17:05:03 27 C 8.49 g/m*3 27 C 0 km/h
Sensor: Nr:Datum:Temp:Abs-Feuchte:Windchill:Wind:
Aussen-T/F 926 22-09-2009 17:17:02 27.7 C 8.29 g/m*3 27.7 C 0 km/h
927 22-09-2009 17:29:02 27.6 C 8.51 g/m*3 27.6 C 0 km/h
928 22-09-2009 17:41:03 27.5 C 8.47 g/m*3 27.5 C 0 km/h
929 22-09-2009 17:53:02 27.5 C 8.47 g/m*3 27.5 C 0 km/h
930 22-09-2009 18:05:02 26.7 C 8.61 g/m*3 26.7 C 0 km/h
931 22-09-2009 18:17:02 26.2 C 8.37 g/m*3 26.2 C 0 km/h
932 22-09-2009 18:29:02 25.6 C 8.57 g/m*3 25.6 C 0 km/h
933 22-09-2009 18:41:02 24.9 C 8.7 g/m*3 24.9 C 0 km/h
934 22-09-2009 18:53:02 24.4 C 8.23 g/m*3 24.4 C 0 km/h
935 22-09-2009 19:05:02 23.5 C 8.04 g/m*3 23.5 C 0 km/h
936 22-09-2009 19:17:02 22.5 C 7.99 g/m*3 22.5 C 0 km/h
937 22-09-2009 19:29:02 21.5 C 8.3 g/m*3 21.5 C 0 km/h
938 22-09-2009 19:41:02 20.7 C 8.46 g/m*3 20.7 C 0 km/h
939 22-09-2009 19:53:01 20 C 8.47 g/m*3 20 C 0 km/h
940 22-09-2009 20:05:02 19.7 C 8.66 g/m*3 19.7 C 0 km/h
941 22-09-2009 20:17:01 19.2 C 8.24 g/m*3 19.2 C 0 km/h
942 22-09-2009 20:29:01 19.1 C 8.03 g/m*3 19.1 C 0 km/h
943 22-09-2009 20:41:02 19 C 8.15 g/m*3 19 C 0 km/h
944 22-09-2009 20:53:02 18.8 C 8.05 g/m*3 18.8 C 0 km/h
945 22-09-2009 21:05:02 18.8 C 7.89 g/m*3 18.8 C 0 km/h
946 22-09-2009 21:17:02 18.7 C 7.84 g/m*3 18.7 C 0 km/h
947 22-09-2009 21:29:02 18.3 C 7.97 g/m*3 18.3 C 0 km/h
948 22-09-2009 21:41:02 18.1 C 8.03 g/m*3 18.1 C 0 km/h
949 22-09-2009 21:53:01 17.8 C 8.2 g/m*3 17.8 C 0 km/h
950 22-09-2009 22:05:02 17.4 C 8.45 g/m*3 17.4 C 0 km/h
Sensor: Nr:Datum:Temp:Abs-Feuchte:Windchill:Wind:
Aussen-T/F 951 22-09-2009 22:18:03 17.2 C 8.49 g/m*3 17.2 C 0 km/h
952 22-09-2009 22:30:03 17 C 8.39 g/m*3 17 C 0 km/h
953 22-09-2009 22:42:03 16.4 C 9.07 g/m*3 16.4 C 0 km/h
954 22-09-2009 22:54:03 16.3 C 9.02 g/m*3 16.3 C 0 km/h
955 22-09-2009 23:06:03 16.1 C 8.91 g/m*3 16.1 C 0 km/h
956 22-09-2009 23:18:03 16 C 8.99 g/m*3 16 C 0 km/h
957 22-09-2009 23:30:03 15.9 C 9.07 g/m*3 15.9 C 0 km/h
958 22-09-2009 23:42:03 15.6 C 9.04 g/m*3 15.6 C 0 km/h
959 22-09-2009 23:54:03 15.4 C 9.2 g/m*3 15.4 C 0 km/h
960 23-09-2009 00:06:03 15.1 C 9.16 g/m*3 15.1 C 0 km/h
961 23-09-2009 00:18:03 14.8 C 9.25 g/m*3 14.8 C 0 km/h
962 23-09-2009 00:30:03 14.7 C 9.32 g/m*3 14.7 C 0 km/h
963 23-09-2009 00:42:03 14.6 C 9.26 g/m*3 14.6 C 0 km/h
964 23-09-2009 00:54:03 14.4 C 9.27 g/m*3 14.4 C 0 km/h
965 23-09-2009 01:06:03 14.4 C 9.27 g/m*3 14.4 C 0 km/h
966 23-09-2009 01:18:03 14.2 C 9.28 g/m*3 14.2 C 0 km/h
967 23-09-2009 01:30:03 14.4 C 9.27 g/m*3 14.4 C 0 km/h
968 23-09-2009 01:42:03 14.1 C 9.1 g/m*3 14.1 C 0 km/h
969 23-09-2009 01:54:03 14 C 9.05 g/m*3 14 C 0 km/h
970 23-09-2009 02:06:04 13.8 C 9.06 g/m*3 13.8 C 0 km/h
971 23-09-2009 02:18:04 13.7 C 9.12 g/m*3 13.7 C 0 km/h
972 23-09-2009 02:30:04 13.4 C 8.95 g/m*3 13.4 C 0 km/h
973 23-09-2009 02:42:04 13.3 C 9.01 g/m*3 13.3 C 0 km/h
974 23-09-2009 02:54:04 13.2 C 9.07 g/m*3 13.2 C 0 km/h
975 23-09-2009 03:06:04 13.1 C 9.01 g/m*3 13.1 C 0 km/h
Sensor: Nr:Datum:Temp:Abs-Feuchte:Windchill:Wind:
Aussen-T/F 976 23-09-2009 03:18:04 12.9 C 9.13 g/m*3 12.9 C 0 km/h
977 23-09-2009 03:30:04 12.9 C 9.13 g/m*3 12.9 C 0 km/h
978 23-09-2009 03:42:04 12.8 C 9.18 g/m*3 12.8 C 0 km/h
979 23-09-2009 03:54:04 12.7 C 9.13 g/m*3 12.7 C 0 km/h
980 23-09-2009 04:06:04 12.6 C 9.07 g/m*3 12.6 C 0 km/h
981 23-09-2009 04:18:04 12.5 C 9.13 g/m*3 12.5 C 0 km/h
982 23-09-2009 04:30:04 12.4 C 9.18 g/m*3 12.4 C 0 km/h
983 23-09-2009 04:42:04 12.3 C 9.12 g/m*3 12.3 C 0 km/h
984 23-09-2009 04:54:04 12.3 C 9.12 g/m*3 12.3 C 0 km/h
985 23-09-2009 05:06:04 12.1 C 9.01 g/m*3 12.1 C 0 km/h
986 23-09-2009 05:18:04 12.1 C 9.01 g/m*3 12.1 C 0 km/h
987 23-09-2009 05:30:04 11.9 C 8.9 g/m*3 11.9 C 0 km/h
988 23-09-2009 05:42:04 11.8 C 8.84 g/m*3 11.8 C 0 km/h
989 23-09-2009 05:54:04 11.8 C 8.84 g/m*3 11.8 C 0 km/h
990 23-09-2009 06:06:05 11.6 C 8.83 g/m*3 11.6 C 0 km/h
991 23-09-2009 06:18:05 11.5 C 8.78 g/m*3 11.5 C 0 km/h
992 23-09-2009 06:30:05 11.3 C 8.67 g/m*3 11.3 C 0 km/h
993 23-09-2009 06:42:05 11.2 C 8.72 g/m*3 11.2 C 0 km/h
994 23-09-2009 06:54:05 11.1 C 8.66 g/m*3 11.1 C 0 km/h
995 23-09-2009 07:06:03 11.1 C 8.66 g/m*3 11.1 C 0 km/h
996 23-09-2009 07:18:03 10.9 C 8.65 g/m*3 10.9 C 0 km/h
997 23-09-2009 07:30:03 10.9 C 8.65 g/m*3 10.9 C 0 km/h
998 23-09-2009 07:42:04 11 C 8.71 g/m*3 11 C 0 km/h
999 23-09-2009 07:54:02 10.9 C 8.75 g/m*3 10.9 C 0 km/h
1000 23-09-2009 08:06:02 10.9 C 8.85 g/m*3 10.9 C 0 km/h
Sensor: Nr:Datum:Temp:Abs-Feuchte:Windchill:Wind:
Aussen-T/F 1001 23-09-2009 08:18:02 11 C 8.81 g/m*3 11 C 0 km/h
1002 23-09-2009 08:30:02 11 C 8.81 g/m*3 11 C 0 km/h
1003 23-09-2009 08:42:02 11.1 C 8.86 g/m*3 11.1 C 0 km/h
1004 23-09-2009 08:54:02 11.3 C 8.98 g/m*3 11.3 C 0 km/h
1005 23-09-2009 09:06:02 11.4 C 9.14 g/m*3 11.4 C 0 km/h
1006 23-09-2009 09:18:01 11.5 C 9.19 g/m*3 11.5 C 0 km/h
1007 23-09-2009 09:30:01 11.7 C 9.31 g/m*3 11.7 C 0 km/h
1008 23-09-2009 09:42:02 12.3 C 9.66 g/m*3 12.3 C 0 km/h
1009 23-09-2009 09:54:02 12.9 C 9.92 g/m*3 12.9 C 0 km/h
1010 23-09-2009 10:06:02 13.5 C 9.94 g/m*3 13.5 C 0 km/h
1011 23-09-2009 10:18:02 14.3 C 9.83 g/m*3 14.3 C 0 km/h
1012 23-09-2009 10:30:02 14.8 C 9.75 g/m*3 14.8 C 0 km/h
1013 23-09-2009 10:42:02 15.2 C 9.48 g/m*3 15.2 C 0 km/h
1014 23-09-2009 10:54:02 15.6 C 9.58 g/m*3 15.6 C 0 km/h
1015 23-09-2009 11:06:02 15.9 C 9.48 g/m*3 15.9 C 0 km/h
1016 23-09-2009 11:18:02 16.6 C 9.32 g/m*3 16.6 C 0 km/h
1017 23-09-2009 11:30:02 17.2 C 9.23 g/m*3 17.2 C 0 km/h
1018 23-09-2009 11:42:02 17.8 C 9.26 g/m*3 17.8 C 0 km/h
1019 23-09-2009 11:54:01 18.3 C 9.22 g/m*3 18.3 C 0 km/h
1020 23-09-2009 12:06:02 19.1 C 9.34 g/m*3 19.1 C 0 km/h
1021 23-09-2009 12:18:01 19.5 C 9.4 g/m*3 19.5 C 0 km/h
1022 23-09-2009 12:30:01 19.6 C 8.95 g/m*3 19.6 C 0 km/h
1023 23-09-2009 12:42:01 19.4 C 8.84 g/m*3 19.4 C 0 km/h
1024 23-09-2009 12:54:01 19.5 C 9.23 g/m*3 19.5 C 0 km/h
1025 23-09-2009 13:06:02 20.4 C 9.2 g/m*3 20.4 C 0 km/h
Sensor: Nr:Datum:Temp:Abs-Feuchte:Windchill:Wind:
Aussen-T/F 1026 23-09-2009 13:18:01 21 C 9.16 g/m*3 21 C 0 km/h
1027 23-09-2009 13:30:01 21.6 C 9.1 g/m*3 21.6 C 0 km/h
1028 23-09-2009 13:42:01 22.1 C 8.98 g/m*3 22.1 C 0 km/h
1029 23-09-2009 13:54:01 22.5 C 8.99 g/m*3 22.5 C 0 km/h
1030 23-09-2009 14:06:02 22.7 C 8.69 g/m*3 22.7 C 0 km/h
1031 23-09-2009 14:18:02 23.5 C 8.88 g/m*3 23.5 C 0 km/h
1032 23-09-2009 14:30:02 24.1 C 8.53 g/m*3 24.1 C 0 km/h
1033 23-09-2009 14:42:01 24.3 C 8.63 g/m*3 24.3 C 0 km/h
1034 23-09-2009 14:54:01 24.7 C 8.6 g/m*3 24.7 C 0 km/h
1035 23-09-2009 15:06:02 25.6 C 8.33 g/m*3 25.6 C 0 km/h
1036 23-09-2009 15:18:01 26.1 C 8.32 g/m*3 26.1 C 0 km/h
1037 23-09-2009 15:30:01 26.1 C 8.57 g/m*3 26.1 C 0 km/h
1038 23-09-2009 15:42:02 26.6 C 8.31 g/m*3 26.6 C 0 km/h
1039 23-09-2009 15:54:02 26.6 C 8.56 g/m*3 26.6 C 0 km/h
1040 23-09-2009 16:06:02 27.1 C 8.02 g/m*3 27.1 C 0 km/h
1041 23-09-2009 16:18:02 26.8 C 8.14 g/m*3 26.8 C 0 km/h
1042 23-09-2009 16:30:02 26.1 C 8.57 g/m*3 26.1 C 0 km/h
1043 23-09-2009 16:42:02 26.4 C 8.71 g/m*3 26.4 C 0 km/h
1044 23-09-2009 16:54:01 27.5 C 8.2 g/m*3 27.5 C 0 km/h
1045 23-09-2009 17:06:02 27.6 C 8.25 g/m*3 27.6 C 0 km/h
1046 23-09-2009 17:18:01 26.2 C 8.62 g/m*3 26.2 C 0 km/h
1047 23-09-2009 17:30:01 25.3 C 9.13 g/m*3 25.3 C 0 km/h
1048 23-09-2009 17:42:02 24.5 C 9.4 g/m*3 24.5 C 0 km/h
1049 23-09-2009 17:54:02 23.7 C 9.63 g/m*3 23.7 C 0 km/h
1050 23-09-2009 18:06:02 23.7 C 9.84 g/m*3 23.7 C 0 km/h
Sensor: Nr:Datum:Temp:Abs-Feuchte:Windchill:Wind:
Aussen-T/F 1051 23-09-2009 18:18:01 24 C 9.36 g/m*3 24 C 0 km/h
1052 23-09-2009 18:30:01 24 C 9.57 g/m*3 24 C 0 km/h
1053 23-09-2009 18:42:02 23.8 C 9.68 g/m*3 23.8 C 0 km/h
1054 23-09-2009 18:54:02 23 C 9.66 g/m*3 23 C 0 km/h
1055 23-09-2009 19:06:02 21.6 C 9.48 g/m*3 21.6 C 0 km/h
1056 23-09-2009 19:18:02 21.1 C 9.58 g/m*3 21.1 C 0 km/h
1057 23-09-2009 19:30:02 20.8 C 9.78 g/m*3 20.8 C 0 km/h
1058 23-09-2009 19:42:02 20.3 C 9.67 g/m*3 20.3 C 0 km/h
1059 23-09-2009 19:54:01 20 C 9.85 g/m*3 20 C 0 km/h
1060 23-09-2009 20:06:02 19.7 C 10.02 g/m*3 19.7 C 0 km/h
1061 23-09-2009 20:18:01 19.4 C 9.84 g/m*3 19.4 C 0 km/h
1062 23-09-2009 20:30:01 19.1 C 10 g/m*3 19.1 C 0 km/h
1063 23-09-2009 20:42:01 18.7 C 10.09 g/m*3 18.7 C 0 km/h
1064 23-09-2009 20:54:01 18.4 C 10.07 g/m*3 18.4 C 0 km/h
1065 23-09-2009 21:06:02 18.4 C 10.22 g/m*3 18.4 C 0 km/h
1066 23-09-2009 21:18:01 18.6 C 10.19 g/m*3 18.6 C 0 km/h
1067 23-09-2009 21:30:01 18.5 C 10.13 g/m*3 18.5 C 0 km/h
1068 23-09-2009 21:42:01 18.3 C 10.16 g/m*3 18.3 C 0 km/h
1069 23-09-2009 21:54:01 18 C 10.14 g/m*3 18 C 0 km/h
1070 23-09-2009 22:06:02 17.9 C 10.23 g/m*3 17.9 C 0 km/h
1071 23-09-2009 22:18:01 18.2 C 10.26 g/m*3 18.2 C 0 km/h
1072 23-09-2009 22:30:01 18.2 C 10.1 g/m*3 18.2 C 0 km/h
1073 23-09-2009 22:42:02 18.2 C 10.26 g/m*3 18.2 C 0 km/h
1074 23-09-2009 22:54:02 18.3 C 10.32 g/m*3 18.3 C 0 km/h
1075 23-09-2009 23:06:02 18.2 C 10.26 g/m*3 18.2 C 0 km/h
Sensor: Nr:Datum:Temp:Abs-Feuchte:Windchill:Wind:
Aussen-T/F 1076 23-09-2009 23:18:02 18.1 C 10.35 g/m*3 18.1 C 0 km/h
1077 23-09-2009 23:30:02 18.1 C 10.35 g/m*3 18.1 C 0 km/h
1078 23-09-2009 23:42:02 18 C 10.29 g/m*3 18 C 0 km/h
1079 23-09-2009 23:54:02 17.8 C 10.47 g/m*3 17.8 C 0 km/h
1080 24-09-2009 00:06:02 17.6 C 10.5 g/m*3 17.6 C 0 km/h
1081 24-09-2009 00:18:02 17.6 C 10.5 g/m*3 17.6 C 0 km/h
1082 24-09-2009 00:30:02 17.5 C 10.44 g/m*3 17.5 C 0 km/h
1083 24-09-2009 00:42:02 17.2 C 10.4 g/m*3 17.2 C 0 km/h
1084 24-09-2009 00:54:01 16.9 C 10.5 g/m*3 16.9 C 0 km/h
1085 24-09-2009 01:06:02 16.7 C 10.37 g/m*3 16.7 C 0 km/h
1086 24-09-2009 01:18:01 16.8 C 10.58 g/m*3 16.8 C 0 km/h
1087 24-09-2009 01:30:01 16.8 C 10.58 g/m*3 16.8 C 0 km/h
1088 24-09-2009 01:42:01 16.8 C 10.58 g/m*3 16.8 C 0 km/h
1089 24-09-2009 01:54:01 16.6 C 10.59 g/m*3 16.6 C 0 km/h
1090 24-09-2009 02:06:02 16.6 C 10.59 g/m*3 16.6 C 0 km/h
1091 24-09-2009 02:18:01 16.6 C 10.59 g/m*3 16.6 C 0 km/h
1092 24-09-2009 02:30:01 16.6 C 10.59 g/m*3 16.6 C 0 km/h
1093 24-09-2009 02:42:02 16.5 C 10.67 g/m*3 16.5 C 0 km/h
1094 24-09-2009 02:55:03 16.5 C 10.67 g/m*3 16.5 C 0 km/h
1095 24-09-2009 03:07:03 16.6 C 10.59 g/m*3 16.6 C 0 km/h
1096 24-09-2009 03:19:03 16.6 C 10.59 g/m*3 16.6 C 0 km/h
1097 24-09-2009 03:31:01 16.3 C 10.54 g/m*3 16.3 C 0 km/h
1098 24-09-2009 03:43:01 16.1 C 10.55 g/m*3 16.1 C 0 km/h
1099 24-09-2009 03:55:01 16.2 C 10.62 g/m*3 16.2 C 0 km/h
1100 24-09-2009 04:07:02 16.3 C 10.68 g/m*3 16.3 C 0 km/h
Sensor: Nr:Datum:Temp:Abs-Feuchte:Windchill:Wind:
Aussen-T/F 1101 24-09-2009 04:19:01 16.4 C 10.75 g/m*3 16.4 C 0 km/h
1102 24-09-2009 04:31:02 16.4 C 10.75 g/m*3 16.4 C 0 km/h
1103 24-09-2009 04:43:03 16.4 C 10.61 g/m*3 16.4 C 0 km/h
1104 24-09-2009 04:55:02 16.4 C 10.61 g/m*3 16.4 C 0 km/h
1105 24-09-2009 05:07:02 16.4 C 10.61 g/m*3 16.4 C 0 km/h
1106 24-09-2009 05:19:01 16.2 C 10.62 g/m*3 16.2 C 0 km/h
1107 24-09-2009 05:31:02 16.2 C 10.62 g/m*3 16.2 C 0 km/h
1108 24-09-2009 05:43:02 16.2 C 10.76 g/m*3 16.2 C 0 km/h
1109 24-09-2009 05:55:02 16.3 C 10.82 g/m*3 16.3 C 0 km/h
1110 24-09-2009 06:07:02 16.3 C 10.68 g/m*3 16.3 C 0 km/h
1111 24-09-2009 06:19:01 16.2 C 10.62 g/m*3 16.2 C 0 km/h
1112 24-09-2009 06:31:02 16.2 C 10.62 g/m*3 16.2 C 0 km/h
1113 24-09-2009 06:43:02 16 C 10.63 g/m*3 16 C 0 km/h
1114 24-09-2009 06:55:02 16 C 10.63 g/m*3 16 C 0 km/h
1115 24-09-2009 07:07:02 15.9 C 10.7 g/m*3 15.9 C 0 km/h
1116 24-09-2009 07:19:01 15.9 C 10.7 g/m*3 15.9 C 0 km/h
1117 24-09-2009 07:31:02 16.1 C 10.69 g/m*3 16.1 C 0 km/h
1118 24-09-2009 07:43:02 16.2 C 10.76 g/m*3 16.2 C 0 km/h
1119 24-09-2009 07:55:02 16.2 C 10.76 g/m*3 16.2 C 0 km/h
1120 24-09-2009 08:07:02 16.2 C 10.62 g/m*3 16.2 C 0 km/h
1121 24-09-2009 08:19:02 16.1 C 10.55 g/m*3 16.1 C 0 km/h
1122 24-09-2009 08:31:02 16.2 C 10.62 g/m*3 16.2 C 0 km/h
1123 24-09-2009 08:43:02 16.3 C 10.68 g/m*3 16.3 C 0 km/h
1124 24-09-2009 08:55:01 16.5 C 10.81 g/m*3 16.5 C 0 km/h
1125 24-09-2009 09:07:02 16.6 C 10.74 g/m*3 16.6 C 0 km/h
Sensor: Nr:Datum:Temp:Abs-Feuchte:Windchill:Wind:
Aussen-T/F 1126 24-09-2009 09:19:02 16.5 C 10.67 g/m*3 16.5 C 0 km/h
1127 24-09-2009 09:31:02 16.6 C 10.74 g/m*3 16.6 C 0 km/h
1128 24-09-2009 09:43:02 16.8 C 10.58 g/m*3 16.8 C 0 km/h
1129 24-09-2009 09:55:01 16.9 C 10.64 g/m*3 16.9 C 0 km/h
1130 24-09-2009 10:07:02 16.9 C 10.64 g/m*3 16.9 C 0 km/h
1131 24-09-2009 10:19:01 17.1 C 10.77 g/m*3 17.1 C 0 km/h
1132 24-09-2009 10:31:02 17.3 C 10.75 g/m*3 17.3 C 0 km/h
1133 24-09-2009 10:43:02 17.8 C 10.93 g/m*3 17.8 C 0 km/h
1134 24-09-2009 10:55:02 18.1 C 10.66 g/m*3 18.1 C 0 km/h
1135 24-09-2009 11:07:02 18.4 C 10.7 g/m*3 18.4 C 0 km/h
1136 24-09-2009 11:19:02 18.6 C 10.82 g/m*3 18.6 C 0 km/h
1137 24-09-2009 11:31:02 19.3 C 10.62 g/m*3 19.3 C 0 km/h
1138 24-09-2009 11:43:03 19.7 C 10.36 g/m*3 19.7 C 0 km/h
1139 24-09-2009 11:55:02 20.1 C 10.43 g/m*3 20.1 C 0 km/h
1140 24-09-2009 12:07:02 20.1 C 10.08 g/m*3 20.1 C 0 km/h
1141 24-09-2009 12:19:02 19.9 C 10.48 g/m*3 19.9 C 0 km/h
1142 24-09-2009 12:31:02 19.5 C 10.41 g/m*3 19.5 C 0 km/h
1143 24-09-2009 12:43:02 19.9 C 10.65 g/m*3 19.9 C 0 km/h
1144 24-09-2009 12:55:01 20.6 C 10.56 g/m*3 20.6 C 0 km/h
1145 24-09-2009 13:07:01 20.9 C 10.38 g/m*3 20.9 C 0 km/h
1146 24-09-2009 13:19:01 19.4 C 10.34 g/m*3 19.4 C 0 km/h
1147 24-09-2009 13:31:01 17.7 C 11.16 g/m*3 17.7 C 0 km/h
1148 24-09-2009 13:43:01 17.5 C 11.33 g/m*3 17.5 C 0 km/h
1149 24-09-2009 13:55:01 17.6 C 11.4 g/m*3 17.6 C 0 km/h
1150 24-09-2009 14:07:01 18.1 C 10.97 g/m*3 18.1 C 0 km/h
Sensor: Nr:Datum:Temp:Abs-Feuchte:Windchill:Wind:
Aussen-T/F 1151 24-09-2009 14:19:01 18.5 C 10.6 g/m*3 18.5 C 0 km/h
1152 24-09-2009 14:31:01 18.7 C 10.25 g/m*3 18.7 C 0 km/h
1153 24-09-2009 14:43:01 19.4 C 10.51 g/m*3 19.4 C 0 km/h
1154 24-09-2009 14:55:01 19.8 C 10.08 g/m*3 19.8 C 0 km/h
1155 24-09-2009 15:07:01 20.3 C 10.02 g/m*3 20.3 C 0 km/h
1156 24-09-2009 15:19:02 20.2 C 9.97 g/m*3 20.2 C 0 km/h
1157 24-09-2009 15:31:01 19.7 C 9.85 g/m*3 19.7 C 0 km/h
1158 24-09-2009 15:43:01 19.4 C 10.01 g/m*3 19.4 C 0 km/h
1159 24-09-2009 15:55:01 19.7 C 10.02 g/m*3 19.7 C 0 km/h
1160 24-09-2009 16:07:01 19.7 C 9.51 g/m*3 19.7 C 0 km/h
1161 24-09-2009 16:19:02 19.6 C 9.96 g/m*3 19.6 C 0 km/h
1162 24-09-2009 16:31:01 19.5 C 9.9 g/m*3 19.5 C 0 km/h
1163 24-09-2009 16:43:01 19.5 C 9.73 g/m*3 19.5 C 0 km/h
1164 24-09-2009 16:55:02 19 C 9.61 g/m*3 19 C 0 km/h
1165 24-09-2009 17:07:02 19 C 9.78 g/m*3 19 C 0 km/h
1166 24-09-2009 17:19:03 18.8 C 9.66 g/m*3 18.8 C 0 km/h
1167 24-09-2009 17:31:02 18.5 C 9.81 g/m*3 18.5 C 0 km/h
1168 24-09-2009 17:43:02 18.5 C 9.97 g/m*3 18.5 C 0 km/h
1169 24-09-2009 17:55:03 18.5 C 10.13 g/m*3 18.5 C 0 km/h
1170 24-09-2009 18:07:02 18.6 C 10.35 g/m*3 18.6 C 0 km/h
1171 24-09-2009 18:19:02 18.5 C 10.28 g/m*3 18.5 C 0 km/h
1172 24-09-2009 18:31:02 18.5 C 10.13 g/m*3 18.5 C 0 km/h
1173 24-09-2009 18:43:02 18.2 C 9.79 g/m*3 18.2 C 0 km/h
1174 24-09-2009 18:55:02 18.3 C 10.01 g/m*3 18.3 C 0 km/h
1175 24-09-2009 19:07:02 17.9 C 9.77 g/m*3 17.9 C 0 km/h
Sensor: Nr:Datum:Temp:Abs-Feuchte:Windchill:Wind:
Aussen-T/F 1176 24-09-2009 19:19:02 17.7 C 9.66 g/m*3 17.7 C 0 km/h
1177 24-09-2009 19:31:02 17.6 C 9.6 g/m*3 17.6 C 0 km/h
1178 24-09-2009 19:43:02 17.4 C 9.63 g/m*3 17.4 C 0 km/h
1179 24-09-2009 19:55:02 17.2 C 9.67 g/m*3 17.2 C 0 km/h
1180 24-09-2009 20:07:01 16.9 C 9.92 g/m*3 16.9 C 0 km/h
1181 24-09-2009 20:19:02 16.6 C 10.03 g/m*3 16.6 C 0 km/h
1182 24-09-2009 20:31:02 16.4 C 10.05 g/m*3 16.4 C 0 km/h
1183 24-09-2009 20:43:02 16.1 C 10.01 g/m*3 16.1 C 0 km/h
1184 24-09-2009 20:55:02 15.7 C 10.03 g/m*3 15.7 C 0 km/h
1185 24-09-2009 21:07:01 15.5 C 10.05 g/m*3 15.5 C 0 km/h
1186 24-09-2009 21:19:02 15.5 C 10.18 g/m*3 15.5 C 0 km/h
1187 24-09-2009 21:31:01 15.3 C 10.19 g/m*3 15.3 C 0 km/h
1188 24-09-2009 21:43:01 15 C 10.13 g/m*3 15 C 0 km/h
1189 24-09-2009 21:55:03 14.8 C 10.26 g/m*3 14.8 C 0 km/h
1190 24-09-2009 22:08:03 14.8 C 10.39 g/m*3 14.8 C 0 km/h
1191 24-09-2009 22:20:03 14.7 C 10.32 g/m*3 14.7 C 0 km/h
1192 24-09-2009 22:32:03 14.3 C 10.2 g/m*3 14.3 C 0 km/h
1193 24-09-2009 22:44:03 14.1 C 10.07 g/m*3 14.1 C 0 km/h
1194 24-09-2009 22:56:04 14 C 10.01 g/m*3 14 C 0 km/h
1195 24-09-2009 23:08:04 14 C 10.13 g/m*3 14 C 0 km/h
1196 24-09-2009 23:20:04 14 C 10.13 g/m*3 14 C 0 km/h
1197 24-09-2009 23:32:04 13.8 C 10.13 g/m*3 13.8 C 0 km/h
1198 24-09-2009 23:44:04 13.4 C 9.88 g/m*3 13.4 C 0 km/h
1199 24-09-2009 23:56:04 13.2 C 9.76 g/m*3 13.2 C 0 km/h
1200 25-09-2009 00:08:04 13 C 9.64 g/m*3 13 C 0 km/h
Sensor: Nr:Datum:Temp:Abs-Feuchte:Windchill:Wind:
Aussen-T/F 1201 25-09-2009 00:20:04 12.8 C 9.63 g/m*3 12.8 C 0 km/h
1202 25-09-2009 00:32:04 12.7 C 9.57 g/m*3 12.7 C 0 km/h
1203 25-09-2009 00:44:04 12.5 C 9.57 g/m*3 12.5 C 0 km/h
1204 25-09-2009 00:56:04 12.4 C 9.51 g/m*3 12.4 C 0 km/h
1205 25-09-2009 01:08:04 12.3 C 9.45 g/m*3 12.3 C 0 km/h
1206 25-09-2009 01:20:04 12.5 C 9.68 g/m*3 12.5 C 0 km/h
1207 25-09-2009 01:32:04 12.6 C 9.74 g/m*3 12.6 C 0 km/h
1208 25-09-2009 01:44:04 12.6 C 9.74 g/m*3 12.6 C 0 km/h
1209 25-09-2009 01:56:04 12.7 C 9.8 g/m*3 12.7 C 0 km/h
1210 25-09-2009 02:08:04 12.8 C 9.74 g/m*3 12.8 C 0 km/h
1211 25-09-2009 02:20:04 12.8 C 9.74 g/m*3 12.8 C 0 km/h
1212 25-09-2009 02:32:04 12.8 C 9.63 g/m*3 12.8 C 0 km/h
1213 25-09-2009 02:44:04 12.7 C 9.57 g/m*3 12.7 C 0 km/h
1214 25-09-2009 02:56:04 12.5 C 9.57 g/m*3 12.5 C 0 km/h
1215 25-09-2009 03:08:05 12.4 C 9.51 g/m*3 12.4 C 0 km/h
1216 25-09-2009 03:20:05 12.2 C 9.39 g/m*3 12.2 C 0 km/h
1217 25-09-2009 03:32:05 12.3 C 9.56 g/m*3 12.3 C 0 km/h
1218 25-09-2009 03:44:05 12.3 C 9.56 g/m*3 12.3 C 0 km/h
1219 25-09-2009 03:56:05 12.4 C 9.62 g/m*3 12.4 C 0 km/h
1220 25-09-2009 04:08:05 12.3 C 9.56 g/m*3 12.3 C 0 km/h
1221 25-09-2009 04:20:05 11.8 C 9.26 g/m*3 11.8 C 0 km/h
1222 25-09-2009 04:32:05 11.7 C 9.2 g/m*3 11.7 C 0 km/h
1223 25-09-2009 04:44:05 11.7 C 9.31 g/m*3 11.7 C 0 km/h
1224 25-09-2009 04:56:05 11.5 C 9.19 g/m*3 11.5 C 0 km/h
1225 25-09-2009 05:08:05 11.2 C 9.02 g/m*3 11.2 C 0 km/h
Sensor: Nr:Datum:Temp:Abs-Feuchte:Windchill:Wind:
Aussen-T/F 1226 25-09-2009 05:20:05 11.1 C 8.96 g/m*3 11.1 C 0 km/h
1227 25-09-2009 05:32:05 11.1 C 9.07 g/m*3 11.1 C 0 km/h
1228 25-09-2009 05:44:05 11 C 9.01 g/m*3 11 C 0 km/h
1229 25-09-2009 05:56:05 10.8 C 8.9 g/m*3 10.8 C 0 km/h
1230 25-09-2009 06:08:05 10.8 C 8.99 g/m*3 10.8 C 0 km/h
1231 25-09-2009 06:20:05 10.9 C 9.05 g/m*3 10.9 C 0 km/h
1232 25-09-2009 06:32:05 11 C 9.01 g/m*3 11 C 0 km/h
1233 25-09-2009 06:44:05 10.9 C 8.95 g/m*3 10.9 C 0 km/h
1234 25-09-2009 06:56:05 10.9 C 8.95 g/m*3 10.9 C 0 km/h
1235 25-09-2009 07:08:06 11.1 C 8.96 g/m*3 11.1 C 0 km/h
1236 25-09-2009 07:20:06 11.1 C 8.96 g/m*3 11.1 C 0 km/h
1237 25-09-2009 07:32:04 11 C 8.91 g/m*3 11 C 0 km/h
1238 25-09-2009 07:44:04 10.9 C 8.95 g/m*3 10.9 C 0 km/h
1239 25-09-2009 07:56:02 11.1 C 9.07 g/m*3 11.1 C 0 km/h
1240 25-09-2009 08:08:02 11.3 C 9.18 g/m*3 11.3 C 0 km/h
1241 25-09-2009 08:20:02 11.4 C 9.14 g/m*3 11.4 C 0 km/h
1242 25-09-2009 08:32:02 11.6 C 9.25 g/m*3 11.6 C 0 km/h
1243 25-09-2009 08:44:02 11.9 C 9.43 g/m*3 11.9 C 0 km/h
1244 25-09-2009 08:56:02 11.8 C 9.16 g/m*3 11.8 C 0 km/h
1245 25-09-2009 09:08:01 11.9 C 9.21 g/m*3 11.9 C 0 km/h
1246 25-09-2009 09:20:01 12.4 C 9.4 g/m*3 12.4 C 0 km/h
1247 25-09-2009 09:32:02 12.7 C 9.35 g/m*3 12.7 C 0 km/h
1248 25-09-2009 09:44:02 13.2 C 9.42 g/m*3 13.2 C 0 km/h
1249 25-09-2009 09:56:02 13.4 C 9.18 g/m*3 13.4 C 0 km/h
1250 25-09-2009 10:08:02 14 C 9.17 g/m*3 14 C 0 km/h
Sensor: Nr:Datum:Temp:Abs-Feuchte:Windchill:Wind:
Aussen-T/F 1251 25-09-2009 10:20:02 14.1 C 8.86 g/m*3 14.1 C 0 km/h
1252 25-09-2009 10:32:02 14.3 C 8.85 g/m*3 14.3 C 0 km/h
1253 25-09-2009 10:44:02 14.4 C 8.65 g/m*3 14.4 C 0 km/h
1254 25-09-2009 10:56:02 14.6 C 8.76 g/m*3 14.6 C 0 km/h
1255 25-09-2009 11:08:02 14.7 C 8.69 g/m*3 14.7 C 0 km/h
1256 25-09-2009 11:20:01 15 C 8.59 g/m*3 15 C 0 km/h
1257 25-09-2009 11:32:02 15 C 8.72 g/m*3 15 C 0 km/h
1258 25-09-2009 11:44:02 15 C 8.85 g/m*3 15 C 0 km/h
1259 25-09-2009 11:56:02 15.5 C 8.99 g/m*3 15.5 C 0 km/h
1260 25-09-2009 12:08:02 15.7 C 8.83 g/m*3 15.7 C 0 km/h
1261 25-09-2009 12:20:02 16.3 C 8.74 g/m*3 16.3 C 0 km/h
1262 25-09-2009 12:32:02 16.6 C 8.9 g/m*3 16.6 C 0 km/h
1263 25-09-2009 12:44:02 16.9 C 8.77 g/m*3 16.9 C 0 km/h
1264 25-09-2009 12:56:03 17.7 C 8.6 g/m*3 17.7 C 0 km/h
1265 25-09-2009 13:08:02 18.2 C 8.24 g/m*3 18.2 C 0 km/h
1266 25-09-2009 13:20:02 18.8 C 8.37 g/m*3 18.8 C 0 km/h
1267 25-09-2009 13:32:02 19.4 C 7.67 g/m*3 19.4 C 0 km/h
1268 25-09-2009 13:44:02 20 C 7.09 g/m*3 20 C 0 km/h
1269 25-09-2009 13:56:02 20.9 C 7.1 g/m*3 20.9 C 0 km/h
1270 25-09-2009 14:08:02 21 C 5.86 g/m*3 21 C 0 km/h
1271 25-09-2009 14:20:01 21.3 C 6.15 g/m*3 21.3 C 0 km/h
1272 25-09-2009 14:32:02 22.7 C 6.26 g/m*3 22.7 C 0 km/h
1273 25-09-2009 14:44:02 22.1 C 6.05 g/m*3 22.1 C 0 km/h
1274 25-09-2009 14:56:02 21.5 C 6.6 g/m*3 21.5 C 0 km/h
1275 25-09-2009 15:08:02 20.4 C 6.55 g/m*3 20.4 C 0 km/h
Sensor: Nr:Datum:Temp:Abs-Feuchte:Windchill:Wind:
Aussen-T/F 1276 25-09-2009 15:20:02 20.5 C 7.12 g/m*3 20.5 C 0 km/h
1277 25-09-2009 15:32:02 22.1 C 6.44 g/m*3 22.1 C 0 km/h
1278 25-09-2009 15:44:02 23.1 C 5.58 g/m*3 23.1 C 0 km/h
1279 25-09-2009 15:56:02 21.1 C 5.53 g/m*3 21.1 C 0 km/h
1280 25-09-2009 16:08:02 21.3 C 5.96 g/m*3 21.3 C 0 km/h
1281 25-09-2009 16:20:02 21.2 C 6.12 g/m*3 21.2 C 0 km/h
1282 25-09-2009 16:32:02 20.4 C 6.37 g/m*3 20.4 C 0 km/h
1283 25-09-2009 16:44:02 20.5 C 6.41 g/m*3 20.5 C 0 km/h
1284 25-09-2009 16:56:02 21.4 C 6.19 g/m*3 21.4 C 0 km/h
1285 25-09-2009 17:08:02 20.8 C 5.98 g/m*3 20.8 C 0 km/h
1286 25-09-2009 17:20:02 21.5 C 6.22 g/m*3 21.5 C 0 km/h
1287 25-09-2009 17:32:02 21.5 C 6.41 g/m*3 21.5 C 0 km/h
1288 25-09-2009 17:44:02 20.8 C 6.7 g/m*3 20.8 C 0 km/h
1289 25-09-2009 17:56:01 20 C 6.91 g/m*3 20 C 0 km/h
1290 25-09-2009 18:08:01 19.9 C 7.39 g/m*3 19.9 C 0 km/h
1291 25-09-2009 18:20:02 19.5 C 7.55 g/m*3 19.5 C 0 km/h
1292 25-09-2009 18:32:01 19.1 C 7.38 g/m*3 19.1 C 0 km/h
1293 25-09-2009 18:44:01 18.6 C 7.48 g/m*3 18.6 C 0 km/h
1294 25-09-2009 18:56:02 18.4 C 7.55 g/m*3 18.4 C 0 km/h
1295 25-09-2009 19:08:02 17.8 C 7.44 g/m*3 17.8 C 0 km/h
1296 25-09-2009 19:20:03 17 C 7.23 g/m*3 17 C 0 km/h
1297 25-09-2009 19:32:02 16.8 C 7.43 g/m*3 16.8 C 0 km/h
1298 25-09-2009 19:44:02 16.5 C 7.44 g/m*3 16.5 C 0 km/h
1299 25-09-2009 19:56:03 16.2 C 7.31 g/m*3 16.2 C 0 km/h
1300 25-09-2009 20:08:02 16 C 7.49 g/m*3 16 C 0 km/h
Sensor: Nr:Datum:Temp:Abs-Feuchte:Windchill:Wind:
Aussen-T/F 1301 25-09-2009 20:20:02 15.6 C 7.45 g/m*3 15.6 C 0 km/h
1302 25-09-2009 20:32:02 15.2 C 7.53 g/m*3 15.2 C 0 km/h
1303 25-09-2009 20:44:02 15.1 C 7.61 g/m*3 15.1 C 0 km/h
1304 25-09-2009 20:56:02 15.3 C 7.7 g/m*3 15.3 C 0 km/h
1305 25-09-2009 21:08:02 15.5 C 7.93 g/m*3 15.5 C 0 km/h
1306 25-09-2009 21:20:02 15.5 C 8.06 g/m*3 15.5 C 0 km/h
1307 25-09-2009 21:32:02 15.6 C 8.11 g/m*3 15.6 C 0 km/h
1308 25-09-2009 21:44:02 15.4 C 8.01 g/m*3 15.4 C 0 km/h
1309 25-09-2009 21:56:02 15.1 C 8 g/m*3 15.1 C 0 km/h
1310 25-09-2009 22:08:02 14.9 C 8.03 g/m*3 14.9 C 0 km/h
1311 25-09-2009 22:21:03 14.6 C 8.01 g/m*3 14.6 C 0 km/h
1312 25-09-2009 22:33:03 14.3 C 7.86 g/m*3 14.3 C 0 km/h
1313 25-09-2009 22:45:03 13.9 C 7.91 g/m*3 13.9 C 0 km/h
1314 25-09-2009 22:57:03 13.7 C 7.93 g/m*3 13.7 C 0 km/h
1315 25-09-2009 23:09:03 13.3 C 7.97 g/m*3 13.3 C 0 km/h
1316 25-09-2009 23:21:03 13.1 C 7.99 g/m*3 13.1 C 0 km/h
1317 25-09-2009 23:33:03 13 C 8.05 g/m*3 13 C 0 km/h
1318 25-09-2009 23:45:03 12.7 C 8.13 g/m*3 12.7 C 0 km/h
1319 25-09-2009 23:57:03 12.6 C 8.08 g/m*3 12.6 C 0 km/h
1320 26-09-2009 00:09:03 12.4 C 8.09 g/m*3 12.4 C 0 km/h
1321 26-09-2009 00:21:03 12.1 C 7.94 g/m*3 12.1 C 0 km/h
1322 26-09-2009 00:33:03 12.1 C 8.04 g/m*3 12.1 C 0 km/h
1323 26-09-2009 00:45:03 11.8 C 8.1 g/m*3 11.8 C 0 km/h
1324 26-09-2009 00:57:03 11.8 C 8.1 g/m*3 11.8 C 0 km/h
1325 26-09-2009 01:09:03 11.7 C 8.05 g/m*3 11.7 C 0 km/h
Sensor: Nr:Datum:Temp:Abs-Feuchte:Windchill:Wind:
Aussen-T/F 1326 26-09-2009 01:21:03 11.6 C 8.11 g/m*3 11.6 C 0 km/h
1327 26-09-2009 01:33:03 11.7 C 8.16 g/m*3 11.7 C 0 km/h
1328 26-09-2009 01:45:03 11.5 C 8.06 g/m*3 11.5 C 0 km/h
1329 26-09-2009 01:57:03 11.2 C 7.91 g/m*3 11.2 C 0 km/h
1330 26-09-2009 02:09:04 11.1 C 7.86 g/m*3 11.1 C 0 km/h
1331 26-09-2009 02:21:04 10.9 C 7.86 g/m*3 10.9 C 0 km/h
1332 26-09-2009 02:33:04 10.7 C 7.86 g/m*3 10.7 C 0 km/h
1333 26-09-2009 02:45:04 10.6 C 7.81 g/m*3 10.6 C 0 km/h
1334 26-09-2009 02:57:04 10.4 C 7.81 g/m*3 10.4 C 0 km/h
1335 26-09-2009 03:09:04 10.1 C 7.66 g/m*3 10.1 C 0 km/h
1336 26-09-2009 03:21:04 10 C 7.61 g/m*3 10 C 0 km/h
1337 26-09-2009 03:33:04 9.8 C 7.61 g/m*3 9.8 C 0 km/h
1338 26-09-2009 03:45:04 9.7 C 7.65 g/m*3 9.7 C 0 km/h
1339 26-09-2009 03:57:04 9.5 C 7.55 g/m*3 9.5 C 0 km/h
1340 26-09-2009 04:09:04 9.3 C 7.55 g/m*3 9.3 C 0 km/h
1341 26-09-2009 04:21:04 9.2 C 7.5 g/m*3 9.2 C 0 km/h
1342 26-09-2009 04:33:04 9.1 C 7.54 g/m*3 9.1 C 0 km/h
1343 26-09-2009 04:45:04 9 C 7.49 g/m*3 9 C 0 km/h
1344 26-09-2009 04:57:04 8.8 C 7.57 g/m*3 8.8 C 0 km/h
1345 26-09-2009 05:09:04 8.7 C 7.52 g/m*3 8.7 C 0 km/h
1346 26-09-2009 05:21:04 8.6 C 7.48 g/m*3 8.6 C 0 km/h
1347 26-09-2009 05:33:04 8.5 C 7.43 g/m*3 8.5 C 0 km/h
1348 26-09-2009 05:45:04 8.4 C 7.3 g/m*3 8.4 C 0 km/h
1349 26-09-2009 05:57:04 8.2 C 7.29 g/m*3 8.2 C 0 km/h
1350 26-09-2009 06:09:05 8 C 7.19 g/m*3 8 C 0 km/h
Sensor: Nr:Datum:Temp:Abs-Feuchte:Windchill:Wind:
Aussen-T/F 1351 26-09-2009 06:21:05 7.8 C 7.26 g/m*3 7.8 C 0 km/h
1352 26-09-2009 06:33:05 7.8 C 7.26 g/m*3 7.8 C 0 km/h
1353 26-09-2009 06:45:05 7.8 C 7.26 g/m*3 7.8 C 0 km/h
1354 26-09-2009 06:57:05 7.8 C 7.35 g/m*3 7.8 C 0 km/h
1355 26-09-2009 07:09:05 7.9 C 7.39 g/m*3 7.9 C 0 km/h
1356 26-09-2009 07:21:05 7.9 C 7.39 g/m*3 7.9 C 0 km/h
1357 26-09-2009 07:33:05 7.9 C 7.39 g/m*3 7.9 C 0 km/h
1358 26-09-2009 07:45:05 8.1 C 7.41 g/m*3 8.1 C 0 km/h
1359 26-09-2009 07:57:05 7.9 C 7.39 g/m*3 7.9 C 0 km/h
1360 26-09-2009 08:09:05 7.8 C 7.43 g/m*3 7.8 C 0 km/h
1361 26-09-2009 08:21:05 7.9 C 7.47 g/m*3 7.9 C 0 km/h
1362 26-09-2009 08:33:05 8 C 7.44 g/m*3 8 C 0 km/h
1363 26-09-2009 08:45:02 8.1 C 7.49 g/m*3 8.1 C 0 km/h
1364 26-09-2009 08:57:02 8.5 C 7.77 g/m*3 8.5 C 0 km/h
1365 26-09-2009 09:09:03 8.7 C 7.78 g/m*3 8.7 C 0 km/h
1366 26-09-2009 09:21:02 9.1 C 7.9 g/m*3 9.1 C 0 km/h
1367 26-09-2009 09:33:02 9.2 C 7.95 g/m*3 9.2 C 0 km/h
1368 26-09-2009 09:45:01 9.5 C 8.1 g/m*3 9.5 C 0 km/h
1369 26-09-2009 09:57:01 9.9 C 8.31 g/m*3 9.9 C 0 km/h
1370 26-09-2009 10:09:02 10.2 C 8.37 g/m*3 10.2 C 0 km/h
1371 26-09-2009 10:21:01 10.9 C 8.65 g/m*3 10.9 C 0 km/h
1372 26-09-2009 10:33:02 11.1 C 8.36 g/m*3 11.1 C 0 km/h
1373 26-09-2009 10:45:01 11.2 C 8.41 g/m*3 11.2 C 0 km/h
1374 26-09-2009 10:57:01 11.7 C 8.79 g/m*3 11.7 C 0 km/h
1375 26-09-2009 11:09:02 12.2 C 8.85 g/m*3 12.2 C 0 km/h
Sensor: Nr:Datum:Temp:Abs-Feuchte:Windchill:Wind:
Aussen-T/F 1376 26-09-2009 11:21:01 12.8 C 8.85 g/m*3 12.8 C 0 km/h
1377 26-09-2009 11:33:02 13.4 C 8.72 g/m*3 13.4 C 0 km/h
1378 26-09-2009 11:45:02 14.1 C 8.86 g/m*3 14.1 C 0 km/h
1379 26-09-2009 11:57:02 14.7 C 8.81 g/m*3 14.7 C 0 km/h
1380 26-09-2009 12:09:02 15.2 C 8.83 g/m*3 15.2 C 0 km/h
1381 26-09-2009 12:21:01 15.6 C 8.64 g/m*3 15.6 C 0 km/h
1382 26-09-2009 12:33:02 16.1 C 8.5 g/m*3 16.1 C 0 km/h
1383 26-09-2009 12:45:02 16.4 C 8.65 g/m*3 16.4 C 0 km/h
1384 26-09-2009 12:57:02 17.1 C 8.73 g/m*3 17.1 C 0 km/h
1385 26-09-2009 13:09:02 17.6 C 8.85 g/m*3 17.6 C 0 km/h
1386 26-09-2009 13:21:02 18.2 C 8.39 g/m*3 18.2 C 0 km/h
1387 26-09-2009 13:33:02 18.9 C 8.1 g/m*3 18.9 C 0 km/h
1388 26-09-2009 13:45:01 19.7 C 7.81 g/m*3 19.7 C 0 km/h
1389 26-09-2009 13:57:01 20.4 C 8.14 g/m*3 20.4 C 0 km/h
1390 26-09-2009 14:09:02 20.9 C 7.29 g/m*3 20.9 C 0 km/h
1391 26-09-2009 14:21:02 21.1 C 6.82 g/m*3 21.1 C 0 km/h
1392 26-09-2009 14:33:02 21.9 C 6.95 g/m*3 21.9 C 0 km/h
1393 26-09-2009 14:45:02 22.7 C 7.07 g/m*3 22.7 C 0 km/h
1394 26-09-2009 14:57:02 23 C 6.37 g/m*3 23 C 0 km/h
1395 26-09-2009 15:09:01 23.4 C 6.52 g/m*3 23.4 C 0 km/h
1396 26-09-2009 15:21:02 23.8 C 6.45 g/m*3 23.8 C 0 km/h
1397 26-09-2009 15:33:01 24.1 C 6.56 g/m*3 24.1 C 0 km/h
1398 26-09-2009 15:45:02 23.9 C 6.06 g/m*3 23.9 C 0 km/h
1399 26-09-2009 15:57:02 24 C 5.87 g/m*3 24 C 0 km/h
1400 26-09-2009 16:09:01 24.2 C 5.94 g/m*3 24.2 C 0 km/h
Sensor: Nr:Datum:Temp:Abs-Feuchte:Windchill:Wind:
Aussen-T/F 1401 26-09-2009 16:21:02 24.4 C 6.68 g/m*3 24.4 C 0 km/h
1402 26-09-2009 16:33:02 24.7 C 5.88 g/m*3 24.7 C 0 km/h
1403 26-09-2009 16:45:02 24.7 C 6.11 g/m*3 24.7 C 0 km/h
1404 26-09-2009 16:57:03 25.7 C 6.46 g/m*3 25.7 C 0 km/h
1405 26-09-2009 17:09:02 25.6 C 6.19 g/m*3 25.6 C 0 km/h
1406 26-09-2009 17:21:02 26 C 6.33 g/m*3 26 C 0 km/h
1407 26-09-2009 17:33:02 25.7 C 6.94 g/m*3 25.7 C 0 km/h
1408 26-09-2009 17:45:02 25.5 C 7.1 g/m*3 25.5 C 0 km/h
1409 26-09-2009 17:57:02 25 C 6.91 g/m*3 25 C 0 km/h
1410 26-09-2009 18:09:02 24.5 C 6.94 g/m*3 24.5 C 0 km/h
1411 26-09-2009 18:21:01 23.7 C 7.06 g/m*3 23.7 C 0 km/h
1412 26-09-2009 18:33:02 22.7 C 7.07 g/m*3 22.7 C 0 km/h
1413 26-09-2009 18:45:02 22 C 7.18 g/m*3 22 C 0 km/h
1414 26-09-2009 18:57:02 21.1 C 7.19 g/m*3 21.1 C 0 km/h
1415 26-09-2009 19:09:02 20 C 7.26 g/m*3 20 C 0 km/h
1416 26-09-2009 19:21:02 19.1 C 7.38 g/m*3 19.1 C 0 km/h
1417 26-09-2009 19:33:02 18.3 C 7.35 g/m*3 18.3 C 0 km/h
1418 26-09-2009 19:45:02 17.8 C 7.44 g/m*3 17.8 C 0 km/h
1419 26-09-2009 19:57:02 17.2 C 7.47 g/m*3 17.2 C 0 km/h
1420 26-09-2009 20:09:02 17.1 C 7.57 g/m*3 17.1 C 0 km/h
1421 26-09-2009 20:21:02 16.7 C 7.53 g/m*3 16.7 C 0 km/h
1422 26-09-2009 20:33:02 16.2 C 7.58 g/m*3 16.2 C 0 km/h
1423 26-09-2009 20:45:01 16 C 7.49 g/m*3 16 C 0 km/h
1424 26-09-2009 20:57:01 15.8 C 7.67 g/m*3 15.8 C 0 km/h
1425 26-09-2009 21:09:02 15.5 C 7.67 g/m*3 15.5 C 0 km/h
Sensor: Nr:Datum:Temp:Abs-Feuchte:Windchill:Wind:
Aussen-T/F 1426 26-09-2009 21:21:01 15.3 C 7.57 g/m*3 15.3 C 0 km/h
1427 26-09-2009 21:33:01 14.9 C 7.65 g/m*3 14.9 C 0 km/h
1428 26-09-2009 21:45:01 14.7 C 7.81 g/m*3 14.7 C 0 km/h
1429 26-09-2009 21:57:01 14.5 C 7.71 g/m*3 14.5 C 0 km/h
1430 26-09-2009 22:09:01 14.3 C 7.74 g/m*3 14.3 C 0 km/h
1431 26-09-2009 22:21:01 14 C 7.72 g/m*3 14 C 0 km/h
1432 26-09-2009 22:33:02 13.8 C 7.86 g/m*3 13.8 C 0 km/h
1433 26-09-2009 22:45:02 13.6 C 7.89 g/m*3 13.6 C 0 km/h
1434 26-09-2009 22:57:02 13.4 C 7.79 g/m*3 13.4 C 0 km/h
1435 26-09-2009 23:09:02 13.2 C 7.81 g/m*3 13.2 C 0 km/h
1436 26-09-2009 23:21:02 13 C 7.94 g/m*3 13 C 0 km/h
1437 26-09-2009 23:33:02 12.6 C 8.08 g/m*3 12.6 C 0 km/h
1438 26-09-2009 23:45:02 12.5 C 8.25 g/m*3 12.5 C 0 km/h
1439 26-09-2009 23:57:02 12.2 C 8.09 g/m*3 12.2 C 0 km/h
1440 27-09-2009 00:09:03 12.1 C 8.04 g/m*3 12.1 C 0 km/h
1441 27-09-2009 00:21:02 11.9 C 8.05 g/m*3 11.9 C 0 km/h
1442 27-09-2009 00:33:02 11.7 C 8.16 g/m*3 11.7 C 0 km/h
1443 27-09-2009 00:45:02 11.5 C 8.06 g/m*3 11.5 C 0 km/h
1444 27-09-2009 00:57:02 11.5 C 8.16 g/m*3 11.5 C 0 km/h
1445 27-09-2009 01:09:02 11.4 C 8.11 g/m*3 11.4 C 0 km/h
1446 27-09-2009 01:21:02 11.1 C 7.96 g/m*3 11.1 C 0 km/h
1447 27-09-2009 01:33:02 11.1 C 7.96 g/m*3 11.1 C 0 km/h
1448 27-09-2009 01:45:02 10.9 C 7.96 g/m*3 10.9 C 0 km/h
1449 27-09-2009 01:57:02 10.8 C 8.01 g/m*3 10.8 C 0 km/h
1450 27-09-2009 02:09:01 10.6 C 8 g/m*3 10.6 C 0 km/h
Sensor: Nr:Datum:Temp:Abs-Feuchte:Windchill:Wind:
Aussen-T/F 1451 27-09-2009 02:21:02 10.5 C 7.95 g/m*3 10.5 C 0 km/h
1452 27-09-2009 02:33:02 10.4 C 7.9 g/m*3 10.4 C 0 km/h
1453 27-09-2009 02:45:01 10.2 C 7.8 g/m*3 10.2 C 0 km/h
1454 27-09-2009 02:57:01 10.1 C 7.75 g/m*3 10.1 C 0 km/h
1455 27-09-2009 03:09:01 9.9 C 7.75 g/m*3 9.9 C 0 km/h
1456 27-09-2009 03:21:01 9.8 C 7.7 g/m*3 9.8 C 0 km/h
1457 27-09-2009 03:33:01 9.7 C 7.65 g/m*3 9.7 C 0 km/h
1458 27-09-2009 03:45:01 9.6 C 7.69 g/m*3 9.6 C 0 km/h
1459 27-09-2009 03:57:02 9.5 C 7.65 g/m*3 9.5 C 0 km/h
1460 27-09-2009 04:09:01 9.3 C 7.55 g/m*3 9.3 C 0 km/h
1461 27-09-2009 04:21:01 9.3 C 7.55 g/m*3 9.3 C 0 km/h
1462 27-09-2009 04:33:02 9.2 C 7.5 g/m*3 9.2 C 0 km/h
1463 27-09-2009 04:45:01 9 C 7.41 g/m*3 9 C 0 km/h
1464 27-09-2009 04:57:01 8.9 C 7.45 g/m*3 8.9 C 0 km/h
1465 27-09-2009 05:09:02 8.8 C 7.4 g/m*3 8.8 C 0 km/h
1466 27-09-2009 05:21:01 8.6 C 7.3 g/m*3 8.6 C 0 km/h
1467 27-09-2009 05:33:02 8.5 C 7.34 g/m*3 8.5 C 0 km/h
1468 27-09-2009 05:45:01 8.5 C 7.43 g/m*3 8.5 C 0 km/h
1469 27-09-2009 05:57:01 8.6 C 7.48 g/m*3 8.6 C 0 km/h
1470 27-09-2009 06:09:02 8.6 C 7.56 g/m*3 8.6 C 0 km/h
1471 27-09-2009 06:21:01 8.6 C 7.56 g/m*3 8.6 C 0 km/h
1472 27-09-2009 06:33:01 8.7 C 7.7 g/m*3 8.7 C 0 km/h
1473 27-09-2009 06:45:01 8.9 C 7.8 g/m*3 8.9 C 0 km/h
1474 27-09-2009 06:57:01 8.8 C 7.66 g/m*3 8.8 C 0 km/h
1475 27-09-2009 07:09:02 8.8 C 7.66 g/m*3 8.8 C 0 km/h
Sensor: Nr:Datum:Temp:Abs-Feuchte:Windchill:Wind:
Aussen-T/F 1476 27-09-2009 07:21:01 8.7 C 7.61 g/m*3 8.7 C 0 km/h
1477 27-09-2009 07:33:01 8.8 C 7.66 g/m*3 8.8 C 0 km/h
1478 27-09-2009 07:45:01 8.8 C 7.57 g/m*3 8.8 C 0 km/h
1479 27-09-2009 07:57:01 8.5 C 7.43 g/m*3 8.5 C 0 km/h
1480 27-09-2009 08:09:01 8.5 C 7.51 g/m*3 8.5 C 0 km/h
1481 27-09-2009 08:21:01 8.5 C 7.51 g/m*3 8.5 C 0 km/h
1482 27-09-2009 08:33:01 8.3 C 7.42 g/m*3 8.3 C 0 km/h
1483 27-09-2009 08:45:01 8.5 C 7.6 g/m*3 8.5 C 0 km/h
1484 27-09-2009 08:57:01 8.7 C 7.7 g/m*3 8.7 C 0 km/h
1485 27-09-2009 09:09:01 8.8 C 7.66 g/m*3 8.8 C 0 km/h
1486 27-09-2009 09:21:02 8.9 C 7.71 g/m*3 8.9 C 0 km/h
1487 27-09-2009 09:33:01 9.3 C 7.73 g/m*3 9.3 C 0 km/h
1488 27-09-2009 09:45:02 9.4 C 7.69 g/m*3 9.4 C 0 km/h
1489 27-09-2009 09:57:02 9.7 C 7.74 g/m*3 9.7 C 0 km/h
1490 27-09-2009 10:09:01 10.3 C 7.95 g/m*3 10.3 C 0 km/h
1491 27-09-2009 10:21:02 11 C 8.11 g/m*3 11 C 0 km/h
1492 27-09-2009 10:33:01 11.5 C 8.06 g/m*3 11.5 C 0 km/h
1493 27-09-2009 10:45:02 11.9 C 8.05 g/m*3 11.9 C 0 km/h
1494 27-09-2009 10:57:02 12.5 C 8.14 g/m*3 12.5 C 0 km/h
1495 27-09-2009 11:09:01 12.6 C 7.97 g/m*3 12.6 C 0 km/h
1496 27-09-2009 11:21:02 13 C 8.05 g/m*3 13 C 0 km/h
1497 27-09-2009 11:33:01 13.1 C 8.1 g/m*3 13.1 C 0 km/h
1498 27-09-2009 11:45:02 13 C 8.28 g/m*3 13 C 0 km/h
1499 27-09-2009 11:57:02 13.3 C 8.55 g/m*3 13.3 C 0 km/h
1500 27-09-2009 12:09:01 13.8 C 8.7 g/m*3 13.8 C 0 km/h
Sensor: Nr:Datum:Temp:Abs-Feuchte:Windchill:Wind:
Aussen-T/F 1501 27-09-2009 12:21:01 14.4 C 8.65 g/m*3 14.4 C 0 km/h
1502 27-09-2009 12:33:02 15 C 8.85 g/m*3 15 C 0 km/h
1503 27-09-2009 12:45:02 15.8 C 8.75 g/m*3 15.8 C 0 km/h
1504 27-09-2009 12:57:02 16.4 C 8.79 g/m*3 16.4 C 0 km/h
1505 27-09-2009 13:09:01 17.1 C 8.59 g/m*3 17.1 C 0 km/h
1506 27-09-2009 13:21:01 18.2 C 8.7 g/m*3 18.2 C 0 km/h
1507 27-09-2009 13:33:02 18.9 C 8.42 g/m*3 18.9 C 0 km/h
1508 27-09-2009 13:45:01 19.3 C 8.79 g/m*3 19.3 C 0 km/h
1509 27-09-2009 13:57:01 20.3 C 8.27 g/m*3 20.3 C 0 km/h
1510 27-09-2009 14:09:01 21.1 C 8.29 g/m*3 21.1 C 0 km/h
1511 27-09-2009 14:21:01 22 C 7.96 g/m*3 22 C 0 km/h
1512 27-09-2009 14:33:02 22.3 C 8.29 g/m*3 22.3 C 0 km/h
1513 27-09-2009 14:45:01 22.8 C 8.13 g/m*3 22.8 C 0 km/h
1514 27-09-2009 14:57:01 23.3 C 7.74 g/m*3 23.3 C 0 km/h
1515 27-09-2009 15:09:02 23.8 C 8.17 g/m*3 23.8 C 0 km/h
1516 27-09-2009 15:21:01 24 C 6.53 g/m*3 24 C 0 km/h
1517 27-09-2009 15:33:02 24.5 C 7.39 g/m*3 24.5 C 0 km/h
1518 27-09-2009 15:45:01 25 C 6.68 g/m*3 25 C 0 km/h
1519 27-09-2009 15:57:01 25.4 C 7.06 g/m*3 25.4 C 0 km/h
1520 27-09-2009 16:09:02 25.7 C 7.18 g/m*3 25.7 C 0 km/h
1521 27-09-2009 16:21:01 26 C 7.06 g/m*3 26 C 0 km/h
1522 27-09-2009 16:33:01 25.9 C 7.02 g/m*3 25.9 C 0 km/h
1523 27-09-2009 16:45:01 26.1 C 6.85 g/m*3 26.1 C 0 km/h
1524 27-09-2009 16:57:01 26.2 C 6.65 g/m*3 26.2 C 0 km/h
1525 27-09-2009 17:09:01 26.4 C 6.97 g/m*3 26.4 C 0 km/h
Sensor: Nr:Datum:Temp:Abs-Feuchte:Windchill:Wind:
Aussen-T/F 1526 27-09-2009 17:21:01 26.4 C 6.47 g/m*3 26.4 C 0 km/h
1527 27-09-2009 17:33:01 26.2 C 6.65 g/m*3 26.2 C 0 km/h
1528 27-09-2009 17:45:01 25.1 C 6.71 g/m*3 25.1 C 0 km/h
1529 27-09-2009 17:57:01 24.4 C 6.45 g/m*3 24.4 C 0 km/h
1530 27-09-2009 18:09:01 23.9 C 6.49 g/m*3 23.9 C 0 km/h
1531 27-09-2009 18:21:02 23.2 C 6.44 g/m*3 23.2 C 0 km/h
1532 27-09-2009 18:33:01 22.3 C 6.52 g/m*3 22.3 C 0 km/h
1533 27-09-2009 18:45:02 21.5 C 6.6 g/m*3 21.5 C 0 km/h
1534 27-09-2009 18:57:02 20.3 C 6.86 g/m*3 20.3 C 0 km/h
1535 27-09-2009 19:09:01 19.4 C 7.01 g/m*3 19.4 C 0 km/h
1536 27-09-2009 19:21:02 18.7 C 7.04 g/m*3 18.7 C 0 km/h
1537 27-09-2009 19:33:02 18.2 C 6.99 g/m*3 18.2 C 0 km/h
1538 27-09-2009 19:45:01 17.9 C 7.18 g/m*3 17.9 C 0 km/h
1539 27-09-2009 19:57:01 17.3 C 7.22 g/m*3 17.3 C 0 km/h
1540 27-09-2009 20:09:01 16.9 C 7.34 g/m*3 16.9 C 0 km/h
1541 27-09-2009 20:21:02 16.6 C 7.35 g/m*3 16.6 C 0 km/h
1542 27-09-2009 20:33:01 16.3 C 7.49 g/m*3 16.3 C 0 km/h
1543 27-09-2009 20:45:01 16.2 C 7.45 g/m*3 16.2 C 0 km/h
1544 27-09-2009 20:57:01 16.1 C 7.4 g/m*3 16.1 C 0 km/h
1545 27-09-2009 21:09:01 15.8 C 7.54 g/m*3 15.8 C 0 km/h
1546 27-09-2009 21:21:02 15.5 C 7.67 g/m*3 15.5 C 0 km/h
1547 27-09-2009 21:33:01 15.2 C 7.53 g/m*3 15.2 C 0 km/h
1548 27-09-2009 21:45:02 14.9 C 7.77 g/m*3 14.9 C 0 km/h
1549 27-09-2009 21:57:02 14.7 C 7.81 g/m*3 14.7 C 0 km/h
1550 27-09-2009 22:09:01 14.5 C 7.84 g/m*3 14.5 C 0 km/h
Sensor: Nr:Datum:Temp:Abs-Feuchte:Windchill:Wind:
Aussen-T/F 1551 27-09-2009 22:21:02 14 C 7.72 g/m*3 14 C 0 km/h
1552 27-09-2009 22:33:01 13.8 C 7.86 g/m*3 13.8 C 0 km/h
1553 27-09-2009 22:45:01 13.7 C 7.93 g/m*3 13.7 C 0 km/h
1554 27-09-2009 22:57:01 13.3 C 7.97 g/m*3 13.3 C 0 km/h
1555 27-09-2009 23:09:01 12.9 C 8.11 g/m*3 12.9 C 0 km/h
1556 27-09-2009 23:21:02 12.9 C 8.11 g/m*3 12.9 C 0 km/h
1557 27-09-2009 23:33:01 12.8 C 8.06 g/m*3 12.8 C 0 km/h
1558 27-09-2009 23:45:02 12.7 C 8.01 g/m*3 12.7 C 0 km/h
1559 27-09-2009 23:57:02 12.5 C 7.92 g/m*3 12.5 C 0 km/h
1560 28-09-2009 00:09:01 12.5 C 8.14 g/m*3 12.5 C 0 km/h
1561 28-09-2009 00:21:02 12.3 C 8.04 g/m*3 12.3 C 0 km/h
1562 28-09-2009 00:33:01 12.1 C 8.04 g/m*3 12.1 C 0 km/h
1563 28-09-2009 00:45:02 11.8 C 8 g/m*3 11.8 C 0 km/h
1564 28-09-2009 00:57:02 11.6 C 8 g/m*3 11.6 C 0 km/h
1565 28-09-2009 01:09:01 11.5 C 7.95 g/m*3 11.5 C 0 km/h
1566 28-09-2009 01:21:02 11.4 C 8.01 g/m*3 11.4 C 0 km/h
1567 28-09-2009 01:33:01 11.3 C 7.96 g/m*3 11.3 C 0 km/h
1568 28-09-2009 01:45:02 11.2 C 7.91 g/m*3 11.2 C 0 km/h
1569 28-09-2009 01:57:02 11.1 C 7.96 g/m*3 11.1 C 0 km/h
1570 28-09-2009 02:09:01 11 C 7.91 g/m*3 11 C 0 km/h
1571 28-09-2009 02:21:02 10.8 C 7.91 g/m*3 10.8 C 0 km/h
1572 28-09-2009 02:33:01 10.8 C 7.91 g/m*3 10.8 C 0 km/h
1573 28-09-2009 02:46:06 10.6 C 7.91 g/m*3 10.6 C 0 km/h
1574 28-09-2009 02:58:06 10.5 C 7.95 g/m*3 10.5 C 0 km/h
1575 28-09-2009 03:10:06 10.4 C 7.9 g/m*3 10.4 C 0 km/h
Sensor: Nr:Datum:Temp:Abs-Feuchte:Windchill:Wind:
Aussen-T/F 1576 28-09-2009 03:22:06 10.2 C 7.9 g/m*3 10.2 C 0 km/h
1577 28-09-2009 03:34:01 10 C 7.8 g/m*3 10 C 0 km/h
1578 28-09-2009 03:46:01 9.9 C 7.94 g/m*3 9.9 C 0 km/h
1579 28-09-2009 03:58:01 9.8 C 7.89 g/m*3 9.8 C 0 km/h
1580 28-09-2009 04:10:02 9.7 C 7.93 g/m*3 9.7 C 0 km/h
1581 28-09-2009 04:22:02 9.7 C 7.93 g/m*3 9.7 C 0 km/h
1582 28-09-2009 04:34:02 9.5 C 7.83 g/m*3 9.5 C 0 km/h
1583 28-09-2009 04:46:01 9.4 C 7.78 g/m*3 9.4 C 0 km/h
1584 28-09-2009 04:58:01 9.3 C 7.73 g/m*3 9.3 C 0 km/h
1585 28-09-2009 05:10:02 9.2 C 7.68 g/m*3 9.2 C 0 km/h
1586 28-09-2009 05:22:02 9 C 7.58 g/m*3 9 C 0 km/h
1587 28-09-2009 05:34:01 8.9 C 7.62 g/m*3 8.9 C 0 km/h
1588 28-09-2009 05:46:02 8.9 C 7.71 g/m*3 8.9 C 0 km/h
1589 28-09-2009 05:58:02 8.7 C 7.61 g/m*3 8.7 C 0 km/h
1590 28-09-2009 06:10:01 8.7 C 7.61 g/m*3 8.7 C 0 km/h
1591 28-09-2009 06:22:02 8.7 C 7.61 g/m*3 8.7 C 0 km/h
1592 28-09-2009 06:34:01 8.5 C 7.51 g/m*3 8.5 C 0 km/h
1593 28-09-2009 06:46:02 8.5 C 7.51 g/m*3 8.5 C 0 km/h
1594 28-09-2009 06:58:02 8.4 C 7.47 g/m*3 8.4 C 0 km/h
1595 28-09-2009 07:10:02 8.2 C 7.37 g/m*3 8.2 C 0 km/h
1596 28-09-2009 07:22:02 8.2 C 7.45 g/m*3 8.2 C 0 km/h
1597 28-09-2009 07:34:03 8 C 7.36 g/m*3 8 C 0 km/h
1598 28-09-2009 07:46:02 8 C 7.36 g/m*3 8 C 0 km/h
1599 28-09-2009 07:58:03 8 C 7.36 g/m*3 8 C 0 km/h
1600 28-09-2009 08:10:01 8 C 7.36 g/m*3 8 C 0 km/h
Sensor: Nr:Datum:Temp:Abs-Feuchte:Windchill:Wind:
Aussen-T/F 1601 28-09-2009 08:22:02 8 C 7.36 g/m*3 8 C 0 km/h
1602 28-09-2009 08:34:02 8.1 C 7.41 g/m*3 8.1 C 0 km/h
1603 28-09-2009 08:46:02 8.4 C 7.55 g/m*3 8.4 C 0 km/h
1604 28-09-2009 08:58:02 8.3 C 7.5 g/m*3 8.3 C 0 km/h
1605 28-09-2009 09:10:03 8.6 C 7.73 g/m*3 8.6 C 0 km/h
1606 28-09-2009 09:22:02 8.9 C 7.88 g/m*3 8.9 C 0 km/h
1607 28-09-2009 09:34:01 9.4 C 8.05 g/m*3 9.4 C 0 km/h
1608 28-09-2009 09:46:02 9.4 C 7.87 g/m*3 9.4 C 0 km/h
1609 28-09-2009 09:58:02 9.6 C 7.88 g/m*3 9.6 C 0 km/h
1610 28-09-2009 10:10:01 10 C 7.89 g/m*3 10 C 0 km/h
1611 28-09-2009 10:22:02 10.4 C 8 g/m*3 10.4 C 0 km/h
1612 28-09-2009 10:34:01 10.4 C 7.9 g/m*3 10.4 C 0 km/h
1613 28-09-2009 10:46:02 11.2 C 8.21 g/m*3 11.2 C 0 km/h
1614 28-09-2009 10:58:02 12.1 C 8.47 g/m*3 12.1 C 0 km/h
1615 28-09-2009 11:10:02 12.7 C 8.46 g/m*3 12.7 C 0 km/h
1616 28-09-2009 11:22:02 13.5 C 8.54 g/m*3 13.5 C 0 km/h
1617 28-09-2009 11:34:03 14.1 C 8.37 g/m*3 14.1 C 0 km/h
1618 28-09-2009 11:46:02 14.8 C 8.36 g/m*3 14.8 C 0 km/h
1619 28-09-2009 11:58:02 15.8 C 8.21 g/m*3 15.8 C 0 km/h
1620 28-09-2009 12:10:01 16.2 C 8 g/m*3 16.2 C 0 km/h
1621 28-09-2009 12:22:02 16.4 C 8.23 g/m*3 16.4 C 0 km/h
1622 28-09-2009 12:34:02 16.9 C 8.2 g/m*3 16.9 C 0 km/h
1623 28-09-2009 12:46:02 17.4 C 8.3 g/m*3 17.4 C 0 km/h
1624 28-09-2009 12:58:02 18.1 C 8.19 g/m*3 18.1 C 0 km/h
1625 28-09-2009 13:10:02 18.5 C 8.23 g/m*3 18.5 C 0 km/h
Sensor: Nr:Datum:Temp:Abs-Feuchte:Windchill:Wind:
Aussen-T/F 1626 28-09-2009 13:22:02 18.9 C 8.26 g/m*3 18.9 C 0 km/h
1627 28-09-2009 13:34:02 19.2 C 8.08 g/m*3 19.2 C 0 km/h
1628 28-09-2009 13:46:01 19.8 C 8.2 g/m*3 19.8 C 0 km/h
1629 28-09-2009 13:58:01 20.8 C 8.15 g/m*3 20.8 C 0 km/h
1630 28-09-2009 14:10:02 21.2 C 7.6 g/m*3 21.2 C 0 km/h
1631 28-09-2009 14:22:01 21 C 7.69 g/m*3 21 C 0 km/h
1632 28-09-2009 14:34:01 20.6 C 7.87 g/m*3 20.6 C 0 km/h
1633 28-09-2009 14:46:01 20.6 C 8.23 g/m*3 20.6 C 0 km/h
1634 28-09-2009 14:58:01 21.4 C 7.87 g/m*3 21.4 C 0 km/h
1635 28-09-2009 15:10:02 22 C 7.57 g/m*3 22 C 0 km/h
1636 28-09-2009 15:22:01 22 C 7.76 g/m*3 22 C 0 km/h
1637 28-09-2009 15:34:01 21.6 C 7.78 g/m*3 21.6 C 0 km/h
1638 28-09-2009 15:46:01 22.5 C 7.99 g/m*3 22.5 C 0 km/h
1639 28-09-2009 15:58:01 22.6 C 7.83 g/m*3 22.6 C 0 km/h
1640 28-09-2009 16:10:02 22.8 C 7.72 g/m*3 22.8 C 0 km/h
1641 28-09-2009 16:22:01 23 C 7.6 g/m*3 23 C 0 km/h
1642 28-09-2009 16:34:01 23.5 C 7.61 g/m*3 23.5 C 0 km/h
1643 28-09-2009 16:46:01 22.8 C 7.32 g/m*3 22.8 C 0 km/h
1644 28-09-2009 16:58:01 22.7 C 8.08 g/m*3 22.7 C 0 km/h
1645 28-09-2009 17:10:01 22.5 C 7.99 g/m*3 22.5 C 0 km/h
1646 28-09-2009 17:22:02 21.9 C 8.1 g/m*3 21.9 C 0 km/h
1647 28-09-2009 17:34:01 22.1 C 7.81 g/m*3 22.1 C 0 km/h
1648 28-09-2009 17:46:03 21.9 C 8.1 g/m*3 21.9 C 0 km/h
1649 28-09-2009 17:58:03 20.8 C 8.33 g/m*3 20.8 C 0 km/h
1650 28-09-2009 18:10:02 19.8 C 8.37 g/m*3 19.8 C 0 km/h
Sensor: Nr:Datum:Temp:Abs-Feuchte:Windchill:Wind:
Aussen-T/F 1651 28-09-2009 18:22:02 19.2 C 8.41 g/m*3 19.2 C 0 km/h
1652 28-09-2009 18:34:02 18.7 C 8.65 g/m*3 18.7 C 0 km/h
1653 28-09-2009 18:46:02 18.3 C 8.76 g/m*3 18.3 C 0 km/h
1654 28-09-2009 18:58:02 18.1 C 8.81 g/m*3 18.1 C 0 km/h
1655 28-09-2009 19:10:02 17.8 C 8.95 g/m*3 17.8 C 0 km/h
1656 28-09-2009 19:22:02 17.3 C 8.84 g/m*3 17.3 C 0 km/h
1657 28-09-2009 19:34:01 17 C 8.83 g/m*3 17 C 0 km/h
1658 28-09-2009 19:46:02 16.6 C 8.9 g/m*3 16.6 C 0 km/h
1659 28-09-2009 19:58:02 16.3 C 8.88 g/m*3 16.3 C 0 km/h
1660 28-09-2009 20:10:01 16.1 C 9.05 g/m*3 16.1 C 0 km/h
1661 28-09-2009 20:22:02 15.8 C 9.15 g/m*3 15.8 C 0 km/h
1662 28-09-2009 20:34:02 15.6 C 9.04 g/m*3 15.6 C 0 km/h
1663 28-09-2009 20:46:02 15.6 C 9.18 g/m*3 15.6 C 0 km/h
1664 28-09-2009 20:58:02 15.4 C 9.07 g/m*3 15.4 C 0 km/h
1665 28-09-2009 21:10:02 15.3 C 9.01 g/m*3 15.3 C 0 km/h
1666 28-09-2009 21:22:02 15.3 C 9.01 g/m*3 15.3 C 0 km/h
1667 28-09-2009 21:34:02 15.2 C 8.96 g/m*3 15.2 C 0 km/h
1668 28-09-2009 21:46:01 15.2 C 8.96 g/m*3 15.2 C 0 km/h
1669 28-09-2009 21:58:01 14.8 C 8.99 g/m*3 14.8 C 0 km/h
1670 28-09-2009 22:11:02 14.6 C 9.01 g/m*3 14.6 C 0 km/h
1671 28-09-2009 22:23:02 14.5 C 8.95 g/m*3 14.5 C 0 km/h
1672 28-09-2009 22:35:02 14.5 C 8.95 g/m*3 14.5 C 0 km/h
1673 28-09-2009 22:47:02 14 C 8.81 g/m*3 14 C 0 km/h
1674 28-09-2009 22:59:02 13.9 C 8.99 g/m*3 13.9 C 0 km/h
1675 28-09-2009 23:11:02 14 C 9.17 g/m*3 14 C 0 km/h
Sensor: Nr:Datum:Temp:Abs-Feuchte:Windchill:Wind:
Aussen-T/F 1676 28-09-2009 23:23:02 14.2 C 9.4 g/m*3 14.2 C 0 km/h
1677 28-09-2009 23:35:02 14.5 C 9.33 g/m*3 14.5 C 0 km/h
1678 28-09-2009 23:47:02 14.2 C 9.28 g/m*3 14.2 C 0 km/h
1679 28-09-2009 23:59:02 14.4 C 9.39 g/m*3 14.4 C 0 km/h

Legende:
   Min
   Max


Maximal/Minimal-Werte vom 15.09.2009 - 28.09.2009

Sensor Min Max Avg
Temp
(Aussen-T/F)
7.8 °C
26-09-2009  06:21:05
29.2 °C
22-09-2009  16:29:02
16.94 °C
Abs-Feuchte
(Aussen-T/F)
5.53 g/m*3
25-09-2009  15:56:02
13.93 g/m*3
19-09-2009  21:14:01
9.59 g/m*3
Windchill
(Aussen-T/F)
7.8 C
26-09-2009  06:21:05
29.2 C
22-09-2009  16:29:02
16.93 C

Die Daten stammen von einer Davis Vantage Pro 2 Wetter-Station und werden unter Linux mit der Software wview2wettercgi und aufbereitet. Alle Angaben erfolgen ohne Gewähr für ihre Vollständigkeit oder Richtigkeit.
Kontakt: Rainer Krienke krienke@uni-koblenz.de . Meine Webseiten an der Uni Koblenz oder privat.
Version: $Revision: 0.78 $